<?xml version="1.0" encoding="UTF-8" standalone="no"?>
<gpx xmlns="http://www.topografix.com/GPX/1/1" version="1.1" xmlns:xsi="http://www.w3.org/2001/XMLSchema-instance" xsi:schemaLocation="http://www.topografix.com/GPX/1/1 http://www.topografix.com/GPX/1/1/gpx.xsd">
<metadata>
<link href="http://www.gps-freeware.de">
<text>Rottal Radweg</text>
</link>
<time>2011-02-01T02:08:23Z</time>
<bounds maxlat="48.460205" maxlon="13.425658" minlat="48.354602" minlon="12.497678" />
</metadata>
<trk>
<name>Rottal Radweg</name>
<trkseg>
<trkpt lat="48.354602" lon="12.497989">
<ele>441.045600</ele>
<time>2010-10-16T08:00:00.000Z</time>
</trkpt>
<trkpt lat="48.354866" lon="12.497678">
<ele>440.131200</ele>
<time>2010-10-16T08:00:18.100Z</time>
</trkpt>
<trkpt lat="48.354927" lon="12.498000">
<ele>440.131200</ele>
<time>2010-10-16T08:00:36.200Z</time>
</trkpt>
<trkpt lat="48.355857" lon="12.499582">
<ele>440.131200</ele>
<time>2010-10-16T08:00:54.300Z</time>
</trkpt>
<trkpt lat="48.356349" lon="12.500982">
<ele>441.045600</ele>
<time>2010-10-16T08:01:12.400Z</time>
</trkpt>
<trkpt lat="48.356509" lon="12.501460">
<ele>438.912000</ele>
<time>2010-10-16T08:01:30.500Z</time>
</trkpt>
<trkpt lat="48.357265" lon="12.502339">
<ele>438.912000</ele>
<time>2010-10-16T08:01:48.600Z</time>
</trkpt>
<trkpt lat="48.357575" lon="12.503225">
<ele>437.997600</ele>
<time>2010-10-16T08:02:06.700Z</time>
</trkpt>
<trkpt lat="48.357607" lon="12.503756">
<ele>438.912000</ele>
<time>2010-10-16T08:02:24.800Z</time>
</trkpt>
<trkpt lat="48.357735" lon="12.504464">
<ele>440.131200</ele>
<time>2010-10-16T08:02:42.900Z</time>
</trkpt>
<trkpt lat="48.357725" lon="12.505306">
<ele>441.045600</ele>
<time>2010-10-16T08:03:01.000Z</time>
</trkpt>
<trkpt lat="48.357928" lon="12.506057">
<ele>440.131200</ele>
<time>2010-10-16T08:03:19.100Z</time>
</trkpt>
<trkpt lat="48.358409" lon="12.506792">
<ele>437.997600</ele>
<time>2010-10-16T08:03:37.200Z</time>
</trkpt>
<trkpt lat="48.358816" lon="12.508053">
<ele>440.131200</ele>
<time>2010-10-16T08:03:55.300Z</time>
</trkpt>
<trkpt lat="48.358680" lon="12.508299">
<ele>441.045600</ele>
<time>2010-10-16T08:04:13.400Z</time>
</trkpt>
<trkpt lat="48.359372" lon="12.510188">
<ele>441.045600</ele>
<time>2010-10-16T08:04:31.500Z</time>
</trkpt>
<trkpt lat="48.359856" lon="12.510864">
<ele>441.045600</ele>
<time>2010-10-16T08:04:49.600Z</time>
</trkpt>
<trkpt lat="48.360341" lon="12.513288">
<ele>437.997600</ele>
<time>2010-10-16T08:05:07.700Z</time>
</trkpt>
<trkpt lat="48.360648" lon="12.514694">
<ele>437.997600</ele>
<time>2010-10-16T08:05:25.800Z</time>
</trkpt>
<trkpt lat="48.360840" lon="12.515316">
<ele>437.997600</ele>
<time>2010-10-16T08:05:43.900Z</time>
</trkpt>
<trkpt lat="48.362209" lon="12.518234">
<ele>437.997600</ele>
<time>2010-10-16T08:06:02.000Z</time>
</trkpt>
<trkpt lat="48.362487" lon="12.517966">
<ele>435.864000</ele>
<time>2010-10-16T08:06:20.100Z</time>
</trkpt>
<trkpt lat="48.362808" lon="12.518417">
<ele>437.997600</ele>
<time>2010-10-16T08:06:38.200Z</time>
</trkpt>
<trkpt lat="48.363620" lon="12.519307">
<ele>437.083200</ele>
<time>2010-10-16T08:06:56.300Z</time>
</trkpt>
<trkpt lat="48.364084" lon="12.520198">
<ele>435.864000</ele>
<time>2010-10-16T08:07:14.400Z</time>
</trkpt>
<trkpt lat="48.364590" lon="12.520734">
<ele>435.864000</ele>
<time>2010-10-16T08:07:32.500Z</time>
</trkpt>
<trkpt lat="48.364860" lon="12.521056">
<ele>435.864000</ele>
<time>2010-10-16T08:07:50.600Z</time>
</trkpt>
<trkpt lat="48.365317" lon="12.522225">
<ele>437.083200</ele>
<time>2010-10-16T08:08:08.700Z</time>
</trkpt>
<trkpt lat="48.365730" lon="12.522805">
<ele>434.949600</ele>
<time>2010-10-16T08:08:26.800Z</time>
</trkpt>
<trkpt lat="48.365823" lon="12.523073">
<ele>434.035200</ele>
<time>2010-10-16T08:08:44.900Z</time>
</trkpt>
<trkpt lat="48.366208" lon="12.523631">
<ele>434.949600</ele>
<time>2010-10-16T08:09:03.000Z</time>
</trkpt>
<trkpt lat="48.366642" lon="12.523953">
<ele>434.949600</ele>
<time>2010-10-16T08:09:21.100Z</time>
</trkpt>
<trkpt lat="48.367284" lon="12.524328">
<ele>435.864000</ele>
<time>2010-10-16T08:09:39.200Z</time>
</trkpt>
<trkpt lat="48.367491" lon="12.524736">
<ele>435.864000</ele>
<time>2010-10-16T08:09:57.300Z</time>
</trkpt>
<trkpt lat="48.367683" lon="12.525605">
<ele>434.035200</ele>
<time>2010-10-16T08:10:15.400Z</time>
</trkpt>
<trkpt lat="48.367783" lon="12.525852">
<ele>433.120800</ele>
<time>2010-10-16T08:10:33.500Z</time>
</trkpt>
<trkpt lat="48.368068" lon="12.526039">
<ele>433.120800</ele>
<time>2010-10-16T08:10:51.600Z</time>
</trkpt>
<trkpt lat="48.368549" lon="12.526292">
<ele>433.120800</ele>
<time>2010-10-16T08:11:09.700Z</time>
</trkpt>
<trkpt lat="48.368827" lon="12.526453">
<ele>434.035200</ele>
<time>2010-10-16T08:11:27.800Z</time>
</trkpt>
<trkpt lat="48.368963" lon="12.526528">
<ele>434.949600</ele>
<time>2010-10-16T08:11:45.900Z</time>
</trkpt>
<trkpt lat="48.369166" lon="12.526528">
<ele>434.949600</ele>
<time>2010-10-16T08:12:04.000Z</time>
</trkpt>
<trkpt lat="48.369322" lon="12.526753">
<ele>434.949600</ele>
<time>2010-10-16T08:12:22.100Z</time>
</trkpt>
<trkpt lat="48.369183" lon="12.527000">
<ele>434.949600</ele>
<time>2010-10-16T08:12:40.200Z</time>
</trkpt>
<trkpt lat="48.368200" lon="12.528266">
<ele>437.997600</ele>
<time>2010-10-16T08:12:58.300Z</time>
</trkpt>
<trkpt lat="48.367815" lon="12.528470">
<ele>441.045600</ele>
<time>2010-10-16T08:13:16.400Z</time>
</trkpt>
<trkpt lat="48.367245" lon="12.528700">
<ele>445.008000</ele>
<time>2010-10-16T08:13:34.500Z</time>
</trkpt>
<trkpt lat="48.366796" lon="12.529011">
<ele>449.884800</ele>
<time>2010-10-16T08:13:52.600Z</time>
</trkpt>
<trkpt lat="48.367059" lon="12.529832">
<ele>449.884800</ele>
<time>2010-10-16T08:14:10.700Z</time>
</trkpt>
<trkpt lat="48.365955" lon="12.530841">
<ele>455.980800</ele>
<time>2010-10-16T08:14:28.800Z</time>
</trkpt>
<trkpt lat="48.365064" lon="12.531500">
<ele>459.028800</ele>
<time>2010-10-16T08:14:46.900Z</time>
</trkpt>
<trkpt lat="48.364479" lon="12.531962">
<ele>466.953600</ele>
<time>2010-10-16T08:15:05.000Z</time>
</trkpt>
<trkpt lat="48.364397" lon="12.532074">
<ele>467.868000</ele>
<time>2010-10-16T08:15:23.100Z</time>
</trkpt>
<trkpt lat="48.364337" lon="12.532235">
<ele>469.087200</ele>
<time>2010-10-16T08:15:41.200Z</time>
</trkpt>
<trkpt lat="48.364187" lon="12.532504">
<ele>470.916000</ele>
<time>2010-10-16T08:15:59.300Z</time>
</trkpt>
<trkpt lat="48.364105" lon="12.532756">
<ele>473.964000</ele>
<time>2010-10-16T08:16:17.400Z</time>
</trkpt>
<trkpt lat="48.364112" lon="12.532927">
<ele>474.878400</ele>
<time>2010-10-16T08:16:35.500Z</time>
</trkpt>
<trkpt lat="48.364262" lon="12.533378">
<ele>477.926400</ele>
<time>2010-10-16T08:16:53.600Z</time>
</trkpt>
<trkpt lat="48.364312" lon="12.533716">
<ele>479.145600</ele>
<time>2010-10-16T08:17:11.700Z</time>
</trkpt>
<trkpt lat="48.364290" lon="12.534097">
<ele>481.888800</ele>
<time>2010-10-16T08:17:29.800Z</time>
</trkpt>
<trkpt lat="48.364276" lon="12.534408">
<ele>481.888800</ele>
<time>2010-10-16T08:17:47.900Z</time>
</trkpt>
<trkpt lat="48.364247" lon="12.534708">
<ele>480.974400</ele>
<time>2010-10-16T08:18:06.000Z</time>
</trkpt>
<trkpt lat="48.364173" lon="12.534848">
<ele>480.974400</ele>
<time>2010-10-16T08:18:24.100Z</time>
</trkpt>
<trkpt lat="48.364084" lon="12.534891">
<ele>480.060000</ele>
<time>2010-10-16T08:18:42.200Z</time>
</trkpt>
<trkpt lat="48.363980" lon="12.534923">
<ele>480.060000</ele>
<time>2010-10-16T08:19:00.300Z</time>
</trkpt>
<trkpt lat="48.363592" lon="12.534826">
<ele>480.060000</ele>
<time>2010-10-16T08:19:18.400Z</time>
</trkpt>
<trkpt lat="48.362344" lon="12.534306">
<ele>488.899200</ele>
<time>2010-10-16T08:19:36.500Z</time>
</trkpt>
<trkpt lat="48.362077" lon="12.534376">
<ele>492.861600</ele>
<time>2010-10-16T08:19:54.600Z</time>
</trkpt>
<trkpt lat="48.361881" lon="12.534472">
<ele>494.995200</ele>
<time>2010-10-16T08:20:12.700Z</time>
</trkpt>
<trkpt lat="48.361667" lon="12.534397">
<ele>498.957600</ele>
<time>2010-10-16T08:20:30.800Z</time>
</trkpt>
<trkpt lat="48.361528" lon="12.534290">
<ele>498.957600</ele>
<time>2010-10-16T08:20:48.900Z</time>
</trkpt>
<trkpt lat="48.361343" lon="12.534091">
<ele>498.957600</ele>
<time>2010-10-16T08:21:07.000Z</time>
</trkpt>
<trkpt lat="48.361254" lon="12.533968">
<ele>498.957600</ele>
<time>2010-10-16T08:21:25.100Z</time>
</trkpt>
<trkpt lat="48.360755" lon="12.533845">
<ele>498.043200</ele>
<time>2010-10-16T08:21:43.200Z</time>
</trkpt>
<trkpt lat="48.360459" lon="12.533834">
<ele>498.957600</ele>
<time>2010-10-16T08:22:01.300Z</time>
</trkpt>
<trkpt lat="48.359065" lon="12.534821">
<ele>501.091200</ele>
<time>2010-10-16T08:22:19.400Z</time>
</trkpt>
<trkpt lat="48.360112" lon="12.537756">
<ele>502.920000</ele>
<time>2010-10-16T08:22:37.500Z</time>
</trkpt>
<trkpt lat="48.360215" lon="12.538212">
<ele>502.920000</ele>
<time>2010-10-16T08:22:55.600Z</time>
</trkpt>
<trkpt lat="48.360230" lon="12.538647">
<ele>504.139200</ele>
<time>2010-10-16T08:23:13.700Z</time>
</trkpt>
<trkpt lat="48.360165" lon="12.539028">
<ele>505.053600</ele>
<time>2010-10-16T08:23:31.800Z</time>
</trkpt>
<trkpt lat="48.360150" lon="12.539460">
<ele>506.882400</ele>
<time>2010-10-16T08:23:49.900Z</time>
</trkpt>
<trkpt lat="48.360248" lon="12.541661">
<ele>516.026400</ele>
<time>2010-10-16T08:24:08.000Z</time>
</trkpt>
<trkpt lat="48.360557" lon="12.544306">
<ele>505.053600</ele>
<time>2010-10-16T08:24:26.100Z</time>
</trkpt>
<trkpt lat="48.360796" lon="12.545626">
<ele>501.091200</ele>
<time>2010-10-16T08:24:44.200Z</time>
</trkpt>
<trkpt lat="48.361064" lon="12.546457">
<ele>495.909600</ele>
<time>2010-10-16T08:25:02.300Z</time>
</trkpt>
<trkpt lat="48.361188" lon="12.546645">
<ele>495.909600</ele>
<time>2010-10-16T08:25:20.400Z</time>
</trkpt>
<trkpt lat="48.361367" lon="12.546656">
<ele>498.043200</ele>
<time>2010-10-16T08:25:38.500Z</time>
</trkpt>
<trkpt lat="48.361498" lon="12.546688">
<ele>498.043200</ele>
<time>2010-10-16T08:25:56.600Z</time>
</trkpt>
<trkpt lat="48.361584" lon="12.546994">
<ele>497.128800</ele>
<time>2010-10-16T08:26:14.700Z</time>
</trkpt>
<trkpt lat="48.361902" lon="12.549397">
<ele>479.145600</ele>
<time>2010-10-16T08:26:32.800Z</time>
</trkpt>
<trkpt lat="48.362087" lon="12.550331">
<ele>473.964000</ele>
<time>2010-10-16T08:26:50.900Z</time>
</trkpt>
<trkpt lat="48.362144" lon="12.550534">
<ele>473.049600</ele>
<time>2010-10-16T08:27:09.000Z</time>
</trkpt>
<trkpt lat="48.362372" lon="12.550754">
<ele>470.001600</ele>
<time>2010-10-16T08:27:27.100Z</time>
</trkpt>
<trkpt lat="48.362432" lon="12.550980">
<ele>467.868000</ele>
<time>2010-10-16T08:27:45.200Z</time>
</trkpt>
<trkpt lat="48.362493" lon="12.551253">
<ele>465.124800</ele>
<time>2010-10-16T08:28:03.300Z</time>
</trkpt>
<trkpt lat="48.362596" lon="12.551393">
<ele>462.991200</ele>
<time>2010-10-16T08:28:21.400Z</time>
</trkpt>
<trkpt lat="48.363138" lon="12.551468">
<ele>459.028800</ele>
<time>2010-10-16T08:28:39.500Z</time>
</trkpt>
<trkpt lat="48.363430" lon="12.551414">
<ele>458.114400</ele>
<time>2010-10-16T08:28:57.600Z</time>
</trkpt>
<trkpt lat="48.363869" lon="12.551157">
<ele>456.895200</ele>
<time>2010-10-16T08:29:15.700Z</time>
</trkpt>
<trkpt lat="48.364432" lon="12.550947">
<ele>455.066400</ele>
<time>2010-10-16T08:29:33.800Z</time>
</trkpt>
<trkpt lat="48.365202" lon="12.550373">
<ele>456.895200</ele>
<time>2010-10-16T08:29:51.900Z</time>
</trkpt>
<trkpt lat="48.365979" lon="12.550062">
<ele>455.980800</ele>
<time>2010-10-16T08:30:10.000Z</time>
</trkpt>
<trkpt lat="48.366495" lon="12.549778">
<ele>455.066400</ele>
<time>2010-10-16T08:30:28.100Z</time>
</trkpt>
<trkpt lat="48.366919" lon="12.549627">
<ele>454.152000</ele>
<time>2010-10-16T08:30:46.200Z</time>
</trkpt>
<trkpt lat="48.367785" lon="12.549392">
<ele>451.104000</ele>
<time>2010-10-16T08:31:04.300Z</time>
</trkpt>
<trkpt lat="48.368238" lon="12.549397">
<ele>448.970400</ele>
<time>2010-10-16T08:31:22.400Z</time>
</trkpt>
<trkpt lat="48.369143" lon="12.548979">
<ele>447.141600</ele>
<time>2010-10-16T08:31:40.500Z</time>
</trkpt>
<trkpt lat="48.369692" lon="12.548917">
<ele>445.922400</ele>
<time>2010-10-16T08:31:58.600Z</time>
</trkpt>
<trkpt lat="48.370993" lon="12.548882">
<ele>444.093600</ele>
<time>2010-10-16T08:32:16.700Z</time>
</trkpt>
<trkpt lat="48.371422" lon="12.548809">
<ele>445.922400</ele>
<time>2010-10-16T08:32:34.800Z</time>
</trkpt>
<trkpt lat="48.371752" lon="12.548764">
<ele>447.141600</ele>
<time>2010-10-16T08:32:52.900Z</time>
</trkpt>
<trkpt lat="48.371945" lon="12.548838">
<ele>447.141600</ele>
<time>2010-10-16T08:33:11.000Z</time>
</trkpt>
<trkpt lat="48.372362" lon="12.549402">
<ele>448.056000</ele>
<time>2010-10-16T08:33:29.100Z</time>
</trkpt>
<trkpt lat="48.372865" lon="12.549750">
<ele>448.970400</ele>
<time>2010-10-16T08:33:47.200Z</time>
</trkpt>
<trkpt lat="48.373879" lon="12.548555">
<ele>455.066400</ele>
<time>2010-10-16T08:34:05.300Z</time>
</trkpt>
<trkpt lat="48.374670" lon="12.547874">
<ele>455.980800</ele>
<time>2010-10-16T08:34:23.400Z</time>
</trkpt>
<trkpt lat="48.375346" lon="12.547558">
<ele>452.018400</ele>
<time>2010-10-16T08:34:41.500Z</time>
</trkpt>
<trkpt lat="48.377047" lon="12.547101">
<ele>445.008000</ele>
<time>2010-10-16T08:34:59.600Z</time>
</trkpt>
<trkpt lat="48.377624" lon="12.547053">
<ele>441.960000</ele>
<time>2010-10-16T08:35:17.700Z</time>
</trkpt>
<trkpt lat="48.378245" lon="12.548898">
<ele>438.912000</ele>
<time>2010-10-16T08:35:35.800Z</time>
</trkpt>
<trkpt lat="48.378543" lon="12.548672">
<ele>437.083200</ele>
<time>2010-10-16T08:35:53.900Z</time>
</trkpt>
<trkpt lat="48.378998" lon="12.548464">
<ele>434.035200</ele>
<time>2010-10-16T08:36:12.000Z</time>
</trkpt>
<trkpt lat="48.379057" lon="12.548448">
<ele>434.035200</ele>
<time>2010-10-16T08:36:30.100Z</time>
</trkpt>
<trkpt lat="48.379478" lon="12.548722">
<ele>434.035200</ele>
<time>2010-10-16T08:36:48.200Z</time>
</trkpt>
<trkpt lat="48.379819" lon="12.548882">
<ele>434.035200</ele>
<time>2010-10-16T08:37:06.300Z</time>
</trkpt>
<trkpt lat="48.379848" lon="12.549030">
<ele>434.035200</ele>
<time>2010-10-16T08:37:24.400Z</time>
</trkpt>
<trkpt lat="48.379357" lon="12.549531">
<ele>435.864000</ele>
<time>2010-10-16T08:37:42.500Z</time>
</trkpt>
<trkpt lat="48.379130" lon="12.549834">
<ele>437.083200</ele>
<time>2010-10-16T08:38:00.600Z</time>
</trkpt>
<trkpt lat="48.378991" lon="12.550188">
<ele>437.997600</ele>
<time>2010-10-16T08:38:18.700Z</time>
</trkpt>
<trkpt lat="48.379333" lon="12.550387">
<ele>437.997600</ele>
<time>2010-10-16T08:38:36.800Z</time>
</trkpt>
<trkpt lat="48.379591" lon="12.550693">
<ele>438.912000</ele>
<time>2010-10-16T08:38:54.900Z</time>
</trkpt>
<trkpt lat="48.379919" lon="12.551138">
<ele>440.131200</ele>
<time>2010-10-16T08:39:13.000Z</time>
</trkpt>
<trkpt lat="48.380281" lon="12.551854">
<ele>441.045600</ele>
<time>2010-10-16T08:39:31.100Z</time>
</trkpt>
<trkpt lat="48.380519" lon="12.552629">
<ele>440.131200</ele>
<time>2010-10-16T08:39:49.200Z</time>
</trkpt>
<trkpt lat="48.380697" lon="12.553206">
<ele>440.131200</ele>
<time>2010-10-16T08:40:07.300Z</time>
</trkpt>
<trkpt lat="48.381139" lon="12.553772">
<ele>437.997600</ele>
<time>2010-10-16T08:40:25.400Z</time>
</trkpt>
<trkpt lat="48.381447" lon="12.554295">
<ele>437.083200</ele>
<time>2010-10-16T08:40:43.500Z</time>
</trkpt>
<trkpt lat="48.381516" lon="12.555063">
<ele>437.083200</ele>
<time>2010-10-16T08:41:01.600Z</time>
</trkpt>
<trkpt lat="48.381563" lon="12.555612">
<ele>437.083200</ele>
<time>2010-10-16T08:41:19.700Z</time>
</trkpt>
<trkpt lat="48.381757" lon="12.556237">
<ele>435.864000</ele>
<time>2010-10-16T08:41:37.800Z</time>
</trkpt>
<trkpt lat="48.381841" lon="12.556569">
<ele>435.864000</ele>
<time>2010-10-16T08:41:55.900Z</time>
</trkpt>
<trkpt lat="48.381993" lon="12.556836">
<ele>435.864000</ele>
<time>2010-10-16T08:42:14.000Z</time>
</trkpt>
<trkpt lat="48.382269" lon="12.557090">
<ele>434.949600</ele>
<time>2010-10-16T08:42:32.100Z</time>
</trkpt>
<trkpt lat="48.382673" lon="12.557347">
<ele>433.120800</ele>
<time>2010-10-16T08:42:50.200Z</time>
</trkpt>
<trkpt lat="48.382906" lon="12.557616">
<ele>434.035200</ele>
<time>2010-10-16T08:43:08.300Z</time>
</trkpt>
<trkpt lat="48.383028" lon="12.557921">
<ele>434.949600</ele>
<time>2010-10-16T08:43:26.400Z</time>
</trkpt>
<trkpt lat="48.383095" lon="12.558214">
<ele>434.949600</ele>
<time>2010-10-16T08:43:44.500Z</time>
</trkpt>
<trkpt lat="48.383293" lon="12.558662">
<ele>435.864000</ele>
<time>2010-10-16T08:44:02.600Z</time>
</trkpt>
<trkpt lat="48.383512" lon="12.558978">
<ele>434.949600</ele>
<time>2010-10-16T08:44:20.700Z</time>
</trkpt>
<trkpt lat="48.383674" lon="12.559402">
<ele>434.035200</ele>
<time>2010-10-16T08:44:38.800Z</time>
</trkpt>
<trkpt lat="48.383783" lon="12.559869">
<ele>433.120800</ele>
<time>2010-10-16T08:44:56.900Z</time>
</trkpt>
<trkpt lat="48.383832" lon="12.560243">
<ele>431.901600</ele>
<time>2010-10-16T08:45:15.000Z</time>
</trkpt>
<trkpt lat="48.383881" lon="12.560617">
<ele>431.901600</ele>
<time>2010-10-16T08:45:33.100Z</time>
</trkpt>
<trkpt lat="48.383890" lon="12.561169">
<ele>431.901600</ele>
<time>2010-10-16T08:45:51.200Z</time>
</trkpt>
<trkpt lat="48.383839" lon="12.561906">
<ele>431.901600</ele>
<time>2010-10-16T08:46:09.300Z</time>
</trkpt>
<trkpt lat="48.383532" lon="12.563820">
<ele>434.035200</ele>
<time>2010-10-16T08:46:27.400Z</time>
</trkpt>
<trkpt lat="48.383514" lon="12.564080">
<ele>434.949600</ele>
<time>2010-10-16T08:46:45.500Z</time>
</trkpt>
<trkpt lat="48.383514" lon="12.564965">
<ele>434.949600</ele>
<time>2010-10-16T08:47:03.600Z</time>
</trkpt>
<trkpt lat="48.383539" lon="12.565555">
<ele>435.864000</ele>
<time>2010-10-16T08:47:21.700Z</time>
</trkpt>
<trkpt lat="48.383565" lon="12.566053">
<ele>437.083200</ele>
<time>2010-10-16T08:47:39.800Z</time>
</trkpt>
<trkpt lat="48.383810" lon="12.567158">
<ele>435.864000</ele>
<time>2010-10-16T08:47:57.900Z</time>
</trkpt>
<trkpt lat="48.384092" lon="12.567635">
<ele>431.901600</ele>
<time>2010-10-16T08:48:16.000Z</time>
</trkpt>
<trkpt lat="48.384174" lon="12.568000">
<ele>430.072800</ele>
<time>2010-10-16T08:48:34.100Z</time>
</trkpt>
<trkpt lat="48.384084" lon="12.569224">
<ele>434.035200</ele>
<time>2010-10-16T08:48:52.200Z</time>
</trkpt>
<trkpt lat="48.384148" lon="12.569959">
<ele>437.083200</ele>
<time>2010-10-16T08:49:10.300Z</time>
</trkpt>
<trkpt lat="48.384220" lon="12.570213">
<ele>437.997600</ele>
<time>2010-10-16T08:49:28.400Z</time>
</trkpt>
<trkpt lat="48.385131" lon="12.572534">
<ele>434.949600</ele>
<time>2010-10-16T08:49:46.500Z</time>
</trkpt>
<trkpt lat="48.385632" lon="12.572132">
<ele>431.901600</ele>
<time>2010-10-16T08:50:04.600Z</time>
</trkpt>
<trkpt lat="48.386170" lon="12.572382">
<ele>430.987200</ele>
<time>2010-10-16T08:50:22.700Z</time>
</trkpt>
<trkpt lat="48.386990" lon="12.572107">
<ele>430.072800</ele>
<time>2010-10-16T08:50:40.800Z</time>
</trkpt>
<trkpt lat="48.387396" lon="12.571855">
<ele>428.853600</ele>
<time>2010-10-16T08:50:58.900Z</time>
</trkpt>
<trkpt lat="48.387891" lon="12.571766">
<ele>428.853600</ele>
<time>2010-10-16T08:51:17.000Z</time>
</trkpt>
<trkpt lat="48.388762" lon="12.573828">
<ele>430.072800</ele>
<time>2010-10-16T08:51:35.100Z</time>
</trkpt>
<trkpt lat="48.389253" lon="12.574523">
<ele>431.901600</ele>
<time>2010-10-16T08:51:53.200Z</time>
</trkpt>
<trkpt lat="48.389842" lon="12.575420">
<ele>431.901600</ele>
<time>2010-10-16T08:52:11.300Z</time>
</trkpt>
<trkpt lat="48.390037" lon="12.576017">
<ele>431.901600</ele>
<time>2010-10-16T08:52:29.400Z</time>
</trkpt>
<trkpt lat="48.390397" lon="12.577695">
<ele>431.901600</ele>
<time>2010-10-16T08:52:47.500Z</time>
</trkpt>
<trkpt lat="48.386447" lon="12.578766">
<ele>428.853600</ele>
<time>2010-10-16T08:53:05.600Z</time>
</trkpt>
<trkpt lat="48.386482" lon="12.579539">
<ele>428.853600</ele>
<time>2010-10-16T08:53:23.700Z</time>
</trkpt>
<trkpt lat="48.386458" lon="12.580118">
<ele>427.939200</ele>
<time>2010-10-16T08:53:41.800Z</time>
</trkpt>
<trkpt lat="48.386276" lon="12.581207">
<ele>430.072800</ele>
<time>2010-10-16T08:53:59.900Z</time>
</trkpt>
<trkpt lat="48.386176" lon="12.581679">
<ele>430.072800</ele>
<time>2010-10-16T08:54:18.000Z</time>
</trkpt>
<trkpt lat="48.386144" lon="12.582296">
<ele>430.072800</ele>
<time>2010-10-16T08:54:36.100Z</time>
</trkpt>
<trkpt lat="48.386155" lon="12.582934">
<ele>430.072800</ele>
<time>2010-10-16T08:54:54.200Z</time>
</trkpt>
<trkpt lat="48.386083" lon="12.583787">
<ele>430.987200</ele>
<time>2010-10-16T08:55:12.300Z</time>
</trkpt>
<trkpt lat="48.386187" lon="12.584919">
<ele>430.072800</ele>
<time>2010-10-16T08:55:30.400Z</time>
</trkpt>
<trkpt lat="48.386336" lon="12.587108">
<ele>430.072800</ele>
<time>2010-10-16T08:55:48.500Z</time>
</trkpt>
<trkpt lat="48.386617" lon="12.590749">
<ele>430.987200</ele>
<time>2010-10-16T08:56:06.600Z</time>
</trkpt>
<trkpt lat="48.386776" lon="12.593019">
<ele>430.987200</ele>
<time>2010-10-16T08:56:24.700Z</time>
</trkpt>
<trkpt lat="48.386650" lon="12.594302">
<ele>431.901600</ele>
<time>2010-10-16T08:56:42.800Z</time>
</trkpt>
<trkpt lat="48.387031" lon="12.595525">
<ele>434.035200</ele>
<time>2010-10-16T08:57:00.900Z</time>
</trkpt>
<trkpt lat="48.387441" lon="12.597038">
<ele>433.120800</ele>
<time>2010-10-16T08:57:19.000Z</time>
</trkpt>
<trkpt lat="48.387727" lon="12.596837">
<ele>431.901600</ele>
<time>2010-10-16T08:57:37.100Z</time>
</trkpt>
<trkpt lat="48.388052" lon="12.596625">
<ele>430.987200</ele>
<time>2010-10-16T08:57:55.200Z</time>
</trkpt>
<trkpt lat="48.388420" lon="12.596751">
<ele>428.853600</ele>
<time>2010-10-16T08:58:13.300Z</time>
</trkpt>
<trkpt lat="48.388949" lon="12.597176">
<ele>424.891200</ele>
<time>2010-10-16T08:58:31.400Z</time>
</trkpt>
<trkpt lat="48.389128" lon="12.597191">
<ele>423.976800</ele>
<time>2010-10-16T08:58:49.500Z</time>
</trkpt>
<trkpt lat="48.391209" lon="12.596635">
<ele>427.024800</ele>
<time>2010-10-16T08:59:07.600Z</time>
</trkpt>
<trkpt lat="48.391698" lon="12.600836">
<ele>426.110400</ele>
<time>2010-10-16T08:59:25.700Z</time>
</trkpt>
<trkpt lat="48.391780" lon="12.604521">
<ele>427.939200</ele>
<time>2010-10-16T08:59:43.800Z</time>
</trkpt>
<trkpt lat="48.392236" lon="12.604526">
<ele>428.853600</ele>
<time>2010-10-16T09:00:01.900Z</time>
</trkpt>
<trkpt lat="48.392681" lon="12.605336">
<ele>430.072800</ele>
<time>2010-10-16T09:00:20.000Z</time>
</trkpt>
<trkpt lat="48.392851" lon="12.605917">
<ele>430.987200</ele>
<time>2010-10-16T09:00:38.100Z</time>
</trkpt>
<trkpt lat="48.392895" lon="12.606447">
<ele>430.987200</ele>
<time>2010-10-16T09:00:56.200Z</time>
</trkpt>
<trkpt lat="48.392410" lon="12.609383">
<ele>430.987200</ele>
<time>2010-10-16T09:01:14.300Z</time>
</trkpt>
<trkpt lat="48.392307" lon="12.610029">
<ele>430.072800</ele>
<time>2010-10-16T09:01:32.400Z</time>
</trkpt>
<trkpt lat="48.392368" lon="12.610476">
<ele>428.853600</ele>
<time>2010-10-16T09:01:50.500Z</time>
</trkpt>
<trkpt lat="48.392501" lon="12.610761">
<ele>428.853600</ele>
<time>2010-10-16T09:02:08.600Z</time>
</trkpt>
<trkpt lat="48.392100" lon="12.611806">
<ele>427.939200</ele>
<time>2010-10-16T09:02:26.700Z</time>
</trkpt>
<trkpt lat="48.392053" lon="12.612200">
<ele>427.939200</ele>
<time>2010-10-16T09:02:44.800Z</time>
</trkpt>
<trkpt lat="48.391782" lon="12.612427">
<ele>427.024800</ele>
<time>2010-10-16T09:03:02.900Z</time>
</trkpt>
<trkpt lat="48.392082" lon="12.613592">
<ele>427.024800</ele>
<time>2010-10-16T09:03:21.000Z</time>
</trkpt>
<trkpt lat="48.392197" lon="12.613836">
<ele>427.939200</ele>
<time>2010-10-16T09:03:39.100Z</time>
</trkpt>
<trkpt lat="48.392018" lon="12.614284">
<ele>427.024800</ele>
<time>2010-10-16T09:03:57.200Z</time>
</trkpt>
<trkpt lat="48.392170" lon="12.615537">
<ele>426.110400</ele>
<time>2010-10-16T09:04:15.300Z</time>
</trkpt>
<trkpt lat="48.392627" lon="12.617310">
<ele>426.110400</ele>
<time>2010-10-16T09:04:33.400Z</time>
</trkpt>
<trkpt lat="48.392702" lon="12.617782">
<ele>424.891200</ele>
<time>2010-10-16T09:04:51.500Z</time>
</trkpt>
<trkpt lat="48.392791" lon="12.620217">
<ele>424.891200</ele>
<time>2010-10-16T09:05:09.600Z</time>
</trkpt>
<trkpt lat="48.392727" lon="12.620607">
<ele>424.891200</ele>
<time>2010-10-16T09:05:27.700Z</time>
</trkpt>
<trkpt lat="48.391748" lon="12.623253">
<ele>423.062400</ele>
<time>2010-10-16T09:05:45.800Z</time>
</trkpt>
<trkpt lat="48.391708" lon="12.623532">
<ele>423.062400</ele>
<time>2010-10-16T09:06:03.900Z</time>
</trkpt>
<trkpt lat="48.391727" lon="12.624376">
<ele>423.062400</ele>
<time>2010-10-16T09:06:22.000Z</time>
</trkpt>
<trkpt lat="48.391929" lon="12.628264">
<ele>422.148000</ele>
<time>2010-10-16T09:06:40.100Z</time>
</trkpt>
<trkpt lat="48.391947" lon="12.629653">
<ele>420.928800</ele>
<time>2010-10-16T09:06:58.200Z</time>
</trkpt>
<trkpt lat="48.391673" lon="12.631574">
<ele>420.014400</ele>
<time>2010-10-16T09:07:16.300Z</time>
</trkpt>
<trkpt lat="48.390843" lon="12.635425">
<ele>420.928800</ele>
<time>2010-10-16T09:07:34.400Z</time>
</trkpt>
<trkpt lat="48.390444" lon="12.637002">
<ele>420.014400</ele>
<time>2010-10-16T09:07:52.500Z</time>
</trkpt>
<trkpt lat="48.390800" lon="12.637222">
<ele>420.014400</ele>
<time>2010-10-16T09:08:10.600Z</time>
</trkpt>
<trkpt lat="48.390982" lon="12.637909">
<ele>420.014400</ele>
<time>2010-10-16T09:08:28.700Z</time>
</trkpt>
<trkpt lat="48.391111" lon="12.638276">
<ele>420.014400</ele>
<time>2010-10-16T09:08:46.800Z</time>
</trkpt>
<trkpt lat="48.392478" lon="12.642260">
<ele>420.928800</ele>
<time>2010-10-16T09:09:04.900Z</time>
</trkpt>
<trkpt lat="48.391961" lon="12.644373">
<ele>422.148000</ele>
<time>2010-10-16T09:09:23.000Z</time>
</trkpt>
<trkpt lat="48.391334" lon="12.646943">
<ele>422.148000</ele>
<time>2010-10-16T09:09:41.100Z</time>
</trkpt>
<trkpt lat="48.391583" lon="12.647167">
<ele>423.062400</ele>
<time>2010-10-16T09:09:59.200Z</time>
</trkpt>
<trkpt lat="48.391924" lon="12.647334">
<ele>423.976800</ele>
<time>2010-10-16T09:10:17.300Z</time>
</trkpt>
<trkpt lat="48.392095" lon="12.647201">
<ele>423.976800</ele>
<time>2010-10-16T09:10:35.400Z</time>
</trkpt>
<trkpt lat="48.392347" lon="12.647271">
<ele>424.891200</ele>
<time>2010-10-16T09:10:53.500Z</time>
</trkpt>
<trkpt lat="48.392832" lon="12.647386">
<ele>424.891200</ele>
<time>2010-10-16T09:11:11.600Z</time>
</trkpt>
<trkpt lat="48.393443" lon="12.647447">
<ele>423.976800</ele>
<time>2010-10-16T09:11:29.700Z</time>
</trkpt>
<trkpt lat="48.393937" lon="12.647440">
<ele>423.062400</ele>
<time>2010-10-16T09:11:47.800Z</time>
</trkpt>
<trkpt lat="48.394872" lon="12.647547">
<ele>423.976800</ele>
<time>2010-10-16T09:12:05.900Z</time>
</trkpt>
<trkpt lat="48.395012" lon="12.651397">
<ele>423.062400</ele>
<time>2010-10-16T09:12:24.000Z</time>
</trkpt>
<trkpt lat="48.395228" lon="12.654941">
<ele>426.110400</ele>
<time>2010-10-16T09:12:42.100Z</time>
</trkpt>
<trkpt lat="48.395192" lon="12.655883">
<ele>426.110400</ele>
<time>2010-10-16T09:13:00.200Z</time>
</trkpt>
<trkpt lat="48.394820" lon="12.659152">
<ele>423.976800</ele>
<time>2010-10-16T09:13:18.300Z</time>
</trkpt>
<trkpt lat="48.394742" lon="12.661429">
<ele>423.062400</ele>
<time>2010-10-16T09:13:36.400Z</time>
</trkpt>
<trkpt lat="48.394172" lon="12.664498">
<ele>420.928800</ele>
<time>2010-10-16T09:13:54.500Z</time>
</trkpt>
<trkpt lat="48.394102" lon="12.665560">
<ele>423.062400</ele>
<time>2010-10-16T09:14:12.600Z</time>
</trkpt>
<trkpt lat="48.394173" lon="12.666324">
<ele>423.062400</ele>
<time>2010-10-16T09:14:30.700Z</time>
</trkpt>
<trkpt lat="48.394485" lon="12.668020">
<ele>423.976800</ele>
<time>2010-10-16T09:14:48.800Z</time>
</trkpt>
<trkpt lat="48.394549" lon="12.668671">
<ele>423.976800</ele>
<time>2010-10-16T09:15:06.900Z</time>
</trkpt>
<trkpt lat="48.394585" lon="12.670468">
<ele>423.976800</ele>
<time>2010-10-16T09:15:25.000Z</time>
</trkpt>
<trkpt lat="48.394535" lon="12.671826">
<ele>423.062400</ele>
<time>2010-10-16T09:15:43.100Z</time>
</trkpt>
<trkpt lat="48.394501" lon="12.673344">
<ele>422.148000</ele>
<time>2010-10-16T09:16:01.200Z</time>
</trkpt>
<trkpt lat="48.394416" lon="12.675449">
<ele>419.100000</ele>
<time>2010-10-16T09:16:19.300Z</time>
</trkpt>
<trkpt lat="48.394387" lon="12.676855">
<ele>419.100000</ele>
<time>2010-10-16T09:16:37.400Z</time>
</trkpt>
<trkpt lat="48.394389" lon="12.679017">
<ele>417.880800</ele>
<time>2010-10-16T09:16:55.500Z</time>
</trkpt>
<trkpt lat="48.394424" lon="12.680867">
<ele>416.966400</ele>
<time>2010-10-16T09:17:13.600Z</time>
</trkpt>
<trkpt lat="48.394661" lon="12.683772">
<ele>416.966400</ele>
<time>2010-10-16T09:17:31.700Z</time>
</trkpt>
<trkpt lat="48.394784" lon="12.685824">
<ele>416.052000</ele>
<time>2010-10-16T09:17:49.800Z</time>
</trkpt>
<trkpt lat="48.394968" lon="12.686763">
<ele>417.880800</ele>
<time>2010-10-16T09:18:07.900Z</time>
</trkpt>
<trkpt lat="48.395512" lon="12.689093">
<ele>416.966400</ele>
<time>2010-10-16T09:18:26.000Z</time>
</trkpt>
<trkpt lat="48.395567" lon="12.690390">
<ele>416.966400</ele>
<time>2010-10-16T09:18:44.100Z</time>
</trkpt>
<trkpt lat="48.395479" lon="12.691644">
<ele>416.966400</ele>
<time>2010-10-16T09:19:02.200Z</time>
</trkpt>
<trkpt lat="48.395386" lon="12.693428">
<ele>416.966400</ele>
<time>2010-10-16T09:19:20.300Z</time>
</trkpt>
<trkpt lat="48.395438" lon="12.694211">
<ele>416.966400</ele>
<time>2010-10-16T09:19:38.400Z</time>
</trkpt>
<trkpt lat="48.395730" lon="12.694895">
<ele>419.100000</ele>
<time>2010-10-16T09:19:56.500Z</time>
</trkpt>
<trkpt lat="48.395135" lon="12.695139">
<ele>416.052000</ele>
<time>2010-10-16T09:20:14.600Z</time>
</trkpt>
<trkpt lat="48.394718" lon="12.695442">
<ele>413.918400</ele>
<time>2010-10-16T09:20:32.700Z</time>
</trkpt>
<trkpt lat="48.394555" lon="12.695602">
<ele>413.918400</ele>
<time>2010-10-16T09:20:50.800Z</time>
</trkpt>
<trkpt lat="48.394898" lon="12.699632">
<ele>412.089600</ele>
<time>2010-10-16T09:21:08.900Z</time>
</trkpt>
<trkpt lat="48.395165" lon="12.701113">
<ele>412.089600</ele>
<time>2010-10-16T09:21:27.000Z</time>
</trkpt>
<trkpt lat="48.397162" lon="12.707330">
<ele>413.004000</ele>
<time>2010-10-16T09:21:45.100Z</time>
</trkpt>
<trkpt lat="48.397178" lon="12.707665">
<ele>412.089600</ele>
<time>2010-10-16T09:22:03.200Z</time>
</trkpt>
<trkpt lat="48.397124" lon="12.708202">
<ele>410.870400</ele>
<time>2010-10-16T09:22:21.300Z</time>
</trkpt>
<trkpt lat="48.397144" lon="12.708416">
<ele>410.870400</ele>
<time>2010-10-16T09:22:39.400Z</time>
</trkpt>
<trkpt lat="48.397221" lon="12.708596">
<ele>412.089600</ele>
<time>2010-10-16T09:22:57.500Z</time>
</trkpt>
<trkpt lat="48.397429" lon="12.708773">
<ele>413.004000</ele>
<time>2010-10-16T09:23:15.600Z</time>
</trkpt>
<trkpt lat="48.397509" lon="12.708993">
<ele>413.918400</ele>
<time>2010-10-16T09:23:33.700Z</time>
</trkpt>
<trkpt lat="48.397482" lon="12.709232">
<ele>413.918400</ele>
<time>2010-10-16T09:23:51.800Z</time>
</trkpt>
<trkpt lat="48.397359" lon="12.709661">
<ele>412.089600</ele>
<time>2010-10-16T09:24:09.900Z</time>
</trkpt>
<trkpt lat="48.397352" lon="12.709983">
<ele>412.089600</ele>
<time>2010-10-16T09:24:28.000Z</time>
</trkpt>
<trkpt lat="48.397518" lon="12.710712">
<ele>410.870400</ele>
<time>2010-10-16T09:24:46.100Z</time>
</trkpt>
<trkpt lat="48.398056" lon="12.712550">
<ele>417.880800</ele>
<time>2010-10-16T09:25:04.200Z</time>
</trkpt>
<trkpt lat="48.398343" lon="12.714068">
<ele>415.137600</ele>
<time>2010-10-16T09:25:22.300Z</time>
</trkpt>
<trkpt lat="48.398601" lon="12.715728">
<ele>413.004000</ele>
<time>2010-10-16T09:25:40.400Z</time>
</trkpt>
<trkpt lat="48.399041" lon="12.719915">
<ele>409.956000</ele>
<time>2010-10-16T09:25:58.500Z</time>
</trkpt>
<trkpt lat="48.399468" lon="12.722659">
<ele>409.956000</ele>
<time>2010-10-16T09:26:16.600Z</time>
</trkpt>
<trkpt lat="48.399340" lon="12.722943">
<ele>409.956000</ele>
<time>2010-10-16T09:26:34.700Z</time>
</trkpt>
<trkpt lat="48.399496" lon="12.723233">
<ele>409.956000</ele>
<time>2010-10-16T09:26:52.800Z</time>
</trkpt>
<trkpt lat="48.399644" lon="12.723675">
<ele>410.870400</ele>
<time>2010-10-16T09:27:10.900Z</time>
</trkpt>
<trkpt lat="48.399796" lon="12.724461">
<ele>410.870400</ele>
<time>2010-10-16T09:27:29.000Z</time>
</trkpt>
<trkpt lat="48.400009" lon="12.726049">
<ele>412.089600</ele>
<time>2010-10-16T09:27:47.100Z</time>
</trkpt>
<trkpt lat="48.400150" lon="12.727516">
<ele>413.004000</ele>
<time>2010-10-16T09:28:05.200Z</time>
</trkpt>
<trkpt lat="48.400200" lon="12.729426">
<ele>412.089600</ele>
<time>2010-10-16T09:28:23.300Z</time>
</trkpt>
<trkpt lat="48.400285" lon="12.730789">
<ele>410.870400</ele>
<time>2010-10-16T09:28:41.400Z</time>
</trkpt>
<trkpt lat="48.400307" lon="12.731186">
<ele>410.870400</ele>
<time>2010-10-16T09:28:59.500Z</time>
</trkpt>
<trkpt lat="48.399630" lon="12.731384">
<ele>408.127200</ele>
<time>2010-10-16T09:29:17.600Z</time>
</trkpt>
<trkpt lat="48.398704" lon="12.731186">
<ele>406.908000</ele>
<time>2010-10-16T09:29:35.700Z</time>
</trkpt>
<trkpt lat="48.397582" lon="12.730901">
<ele>405.993600</ele>
<time>2010-10-16T09:29:53.800Z</time>
</trkpt>
<trkpt lat="48.397101" lon="12.734646">
<ele>405.079200</ele>
<time>2010-10-16T09:30:11.900Z</time>
</trkpt>
<trkpt lat="48.396820" lon="12.739490">
<ele>405.079200</ele>
<time>2010-10-16T09:30:30.000Z</time>
</trkpt>
<trkpt lat="48.396863" lon="12.742928">
<ele>403.860000</ele>
<time>2010-10-16T09:30:48.100Z</time>
</trkpt>
<trkpt lat="48.397105" lon="12.746512">
<ele>402.945600</ele>
<time>2010-10-16T09:31:06.200Z</time>
</trkpt>
<trkpt lat="48.397229" lon="12.748711">
<ele>403.860000</ele>
<time>2010-10-16T09:31:24.300Z</time>
</trkpt>
<trkpt lat="48.396955" lon="12.749071">
<ele>403.860000</ele>
<time>2010-10-16T09:31:42.400Z</time>
</trkpt>
<trkpt lat="48.396795" lon="12.749457">
<ele>402.945600</ele>
<time>2010-10-16T09:32:00.500Z</time>
</trkpt>
<trkpt lat="48.396766" lon="12.750090">
<ele>402.945600</ele>
<time>2010-10-16T09:32:18.600Z</time>
</trkpt>
<trkpt lat="48.396831" lon="12.750481">
<ele>402.945600</ele>
<time>2010-10-16T09:32:36.700Z</time>
</trkpt>
<trkpt lat="48.396937" lon="12.750814">
<ele>402.031200</ele>
<time>2010-10-16T09:32:54.800Z</time>
</trkpt>
<trkpt lat="48.397087" lon="12.751495">
<ele>402.031200</ele>
<time>2010-10-16T09:33:12.900Z</time>
</trkpt>
<trkpt lat="48.397119" lon="12.752091">
<ele>401.116800</ele>
<time>2010-10-16T09:33:31.000Z</time>
</trkpt>
<trkpt lat="48.397226" lon="12.752708">
<ele>399.897600</ele>
<time>2010-10-16T09:33:49.100Z</time>
</trkpt>
<trkpt lat="48.397372" lon="12.753491">
<ele>399.897600</ele>
<time>2010-10-16T09:34:07.200Z</time>
</trkpt>
<trkpt lat="48.397639" lon="12.754532">
<ele>401.116800</ele>
<time>2010-10-16T09:34:25.300Z</time>
</trkpt>
<trkpt lat="48.397906" lon="12.755154">
<ele>399.897600</ele>
<time>2010-10-16T09:34:43.400Z</time>
</trkpt>
<trkpt lat="48.398284" lon="12.756200">
<ele>399.897600</ele>
<time>2010-10-16T09:35:01.500Z</time>
</trkpt>
<trkpt lat="48.398391" lon="12.756736">
<ele>401.116800</ele>
<time>2010-10-16T09:35:19.600Z</time>
</trkpt>
<trkpt lat="48.398647" lon="12.757369">
<ele>402.031200</ele>
<time>2010-10-16T09:35:37.700Z</time>
</trkpt>
<trkpt lat="48.399097" lon="12.758192">
<ele>401.116800</ele>
<time>2010-10-16T09:35:55.800Z</time>
</trkpt>
<trkpt lat="48.399377" lon="12.759231">
<ele>402.031200</ele>
<time>2010-10-16T09:36:13.900Z</time>
</trkpt>
<trkpt lat="48.399520" lon="12.760389">
<ele>402.945600</ele>
<time>2010-10-16T09:36:32.000Z</time>
</trkpt>
<trkpt lat="48.399477" lon="12.762471">
<ele>403.860000</ele>
<time>2010-10-16T09:36:50.100Z</time>
</trkpt>
<trkpt lat="48.399452" lon="12.763254">
<ele>402.945600</ele>
<time>2010-10-16T09:37:08.200Z</time>
</trkpt>
<trkpt lat="48.399498" lon="12.763678">
<ele>402.945600</ele>
<time>2010-10-16T09:37:26.300Z</time>
</trkpt>
<trkpt lat="48.399555" lon="12.764654">
<ele>402.031200</ele>
<time>2010-10-16T09:37:44.400Z</time>
</trkpt>
<trkpt lat="48.399712" lon="12.765749">
<ele>401.116800</ele>
<time>2010-10-16T09:38:02.500Z</time>
</trkpt>
<trkpt lat="48.399740" lon="12.766687">
<ele>399.897600</ele>
<time>2010-10-16T09:38:20.600Z</time>
</trkpt>
<trkpt lat="48.399869" lon="12.767449">
<ele>401.116800</ele>
<time>2010-10-16T09:38:38.700Z</time>
</trkpt>
<trkpt lat="48.400251" lon="12.768621">
<ele>401.116800</ele>
<time>2010-10-16T09:38:56.800Z</time>
</trkpt>
<trkpt lat="48.400460" lon="12.769552">
<ele>402.031200</ele>
<time>2010-10-16T09:39:14.900Z</time>
</trkpt>
<trkpt lat="48.400602" lon="12.770319">
<ele>402.031200</ele>
<time>2010-10-16T09:39:33.000Z</time>
</trkpt>
<trkpt lat="48.400574" lon="12.770657">
<ele>402.031200</ele>
<time>2010-10-16T09:39:51.100Z</time>
</trkpt>
<trkpt lat="48.400866" lon="12.771574">
<ele>399.897600</ele>
<time>2010-10-16T09:40:09.200Z</time>
</trkpt>
<trkpt lat="48.401571" lon="12.773243">
<ele>401.116800</ele>
<time>2010-10-16T09:40:27.300Z</time>
</trkpt>
<trkpt lat="48.401838" lon="12.775136">
<ele>398.983200</ele>
<time>2010-10-16T09:40:45.400Z</time>
</trkpt>
<trkpt lat="48.401756" lon="12.775635">
<ele>399.897600</ele>
<time>2010-10-16T09:41:03.500Z</time>
</trkpt>
<trkpt lat="48.401190" lon="12.775737">
<ele>402.945600</ele>
<time>2010-10-16T09:41:21.600Z</time>
</trkpt>
<trkpt lat="48.400788" lon="12.775887">
<ele>405.079200</ele>
<time>2010-10-16T09:41:39.700Z</time>
</trkpt>
<trkpt lat="48.400399" lon="12.775984">
<ele>405.993600</ele>
<time>2010-10-16T09:41:57.800Z</time>
</trkpt>
<trkpt lat="48.399997" lon="12.776424">
<ele>406.908000</ele>
<time>2010-10-16T09:42:15.900Z</time>
</trkpt>
<trkpt lat="48.399769" lon="12.776880">
<ele>405.993600</ele>
<time>2010-10-16T09:42:34.000Z</time>
</trkpt>
<trkpt lat="48.399591" lon="12.777840">
<ele>405.079200</ele>
<time>2010-10-16T09:42:52.100Z</time>
</trkpt>
<trkpt lat="48.399309" lon="12.778323">
<ele>403.860000</ele>
<time>2010-10-16T09:43:10.200Z</time>
</trkpt>
<trkpt lat="48.399609" lon="12.779251">
<ele>405.993600</ele>
<time>2010-10-16T09:43:28.300Z</time>
</trkpt>
<trkpt lat="48.399858" lon="12.779594">
<ele>406.908000</ele>
<time>2010-10-16T09:43:46.400Z</time>
</trkpt>
<trkpt lat="48.400624" lon="12.781241">
<ele>406.908000</ele>
<time>2010-10-16T09:44:04.500Z</time>
</trkpt>
<trkpt lat="48.400788" lon="12.781380">
<ele>405.993600</ele>
<time>2010-10-16T09:44:22.600Z</time>
</trkpt>
<trkpt lat="48.401379" lon="12.781075">
<ele>399.897600</ele>
<time>2010-10-16T09:44:40.700Z</time>
</trkpt>
<trkpt lat="48.401966" lon="12.781048">
<ele>398.983200</ele>
<time>2010-10-16T09:44:58.800Z</time>
</trkpt>
<trkpt lat="48.402355" lon="12.781284">
<ele>399.897600</ele>
<time>2010-10-16T09:45:16.900Z</time>
</trkpt>
<trkpt lat="48.402662" lon="12.781745">
<ele>401.116800</ele>
<time>2010-10-16T09:45:35.000Z</time>
</trkpt>
<trkpt lat="48.402826" lon="12.782354">
<ele>399.897600</ele>
<time>2010-10-16T09:45:53.100Z</time>
</trkpt>
<trkpt lat="48.403010" lon="12.783553">
<ele>396.849600</ele>
<time>2010-10-16T09:46:11.200Z</time>
</trkpt>
<trkpt lat="48.403094" lon="12.783800">
<ele>396.849600</ele>
<time>2010-10-16T09:46:29.300Z</time>
</trkpt>
<trkpt lat="48.403211" lon="12.783907">
<ele>396.849600</ele>
<time>2010-10-16T09:46:47.400Z</time>
</trkpt>
<trkpt lat="48.403706" lon="12.784103">
<ele>396.849600</ele>
<time>2010-10-16T09:47:05.500Z</time>
</trkpt>
<trkpt lat="48.403849" lon="12.784207">
<ele>396.849600</ele>
<time>2010-10-16T09:47:23.600Z</time>
</trkpt>
<trkpt lat="48.404132" lon="12.784996">
<ele>395.935200</ele>
<time>2010-10-16T09:47:41.700Z</time>
</trkpt>
<trkpt lat="48.404888" lon="12.786935">
<ele>395.935200</ele>
<time>2010-10-16T09:47:59.800Z</time>
</trkpt>
<trkpt lat="48.405193" lon="12.787684">
<ele>395.935200</ele>
<time>2010-10-16T09:48:17.900Z</time>
</trkpt>
<trkpt lat="48.404869" lon="12.789009">
<ele>395.935200</ele>
<time>2010-10-16T09:48:36.000Z</time>
</trkpt>
<trkpt lat="48.404513" lon="12.789854">
<ele>398.983200</ele>
<time>2010-10-16T09:48:54.100Z</time>
</trkpt>
<trkpt lat="48.404675" lon="12.790031">
<ele>398.068800</ele>
<time>2010-10-16T09:49:12.200Z</time>
</trkpt>
<trkpt lat="48.404767" lon="12.790210">
<ele>398.068800</ele>
<time>2010-10-16T09:49:30.300Z</time>
</trkpt>
<trkpt lat="48.404896" lon="12.790774">
<ele>398.068800</ele>
<time>2010-10-16T09:49:48.400Z</time>
</trkpt>
<trkpt lat="48.405043" lon="12.791106">
<ele>396.849600</ele>
<time>2010-10-16T09:50:06.500Z</time>
</trkpt>
<trkpt lat="48.405221" lon="12.791224">
<ele>396.849600</ele>
<time>2010-10-16T09:50:24.600Z</time>
</trkpt>
<trkpt lat="48.405870" lon="12.791310">
<ele>395.020800</ele>
<time>2010-10-16T09:50:42.700Z</time>
</trkpt>
<trkpt lat="48.406058" lon="12.791415">
<ele>395.020800</ele>
<time>2010-10-16T09:51:00.800Z</time>
</trkpt>
<trkpt lat="48.406224" lon="12.791589">
<ele>395.020800</ele>
<time>2010-10-16T09:51:18.900Z</time>
</trkpt>
<trkpt lat="48.406455" lon="12.792104">
<ele>394.106400</ele>
<time>2010-10-16T09:51:37.000Z</time>
</trkpt>
<trkpt lat="48.407162" lon="12.794321">
<ele>394.106400</ele>
<time>2010-10-16T09:51:55.100Z</time>
</trkpt>
<trkpt lat="48.407588" lon="12.795628">
<ele>395.020800</ele>
<time>2010-10-16T09:52:13.200Z</time>
</trkpt>
<trkpt lat="48.408110" lon="12.799104">
<ele>395.020800</ele>
<time>2010-10-16T09:52:31.300Z</time>
</trkpt>
<trkpt lat="48.408549" lon="12.800539">
<ele>394.106400</ele>
<time>2010-10-16T09:52:49.400Z</time>
</trkpt>
<trkpt lat="48.408569" lon="12.801003">
<ele>392.887200</ele>
<time>2010-10-16T09:53:07.500Z</time>
</trkpt>
<trkpt lat="48.408466" lon="12.801307">
<ele>392.887200</ele>
<time>2010-10-16T09:53:25.600Z</time>
</trkpt>
<trkpt lat="48.408325" lon="12.801556">
<ele>392.887200</ele>
<time>2010-10-16T09:53:43.700Z</time>
</trkpt>
<trkpt lat="48.409269" lon="12.801604">
<ele>395.020800</ele>
<time>2010-10-16T09:54:01.800Z</time>
</trkpt>
<trkpt lat="48.410018" lon="12.801658">
<ele>392.887200</ele>
<time>2010-10-16T09:54:19.900Z</time>
</trkpt>
<trkpt lat="48.410102" lon="12.803844">
<ele>395.020800</ele>
<time>2010-10-16T09:54:38.000Z</time>
</trkpt>
<trkpt lat="48.410137" lon="12.804922">
<ele>392.887200</ele>
<time>2010-10-16T09:54:56.100Z</time>
</trkpt>
<trkpt lat="48.410178" lon="12.806183">
<ele>391.972800</ele>
<time>2010-10-16T09:55:14.200Z</time>
</trkpt>
<trkpt lat="48.410184" lon="12.808806">
<ele>391.972800</ele>
<time>2010-10-16T09:55:32.300Z</time>
</trkpt>
<trkpt lat="48.410198" lon="12.813376">
<ele>392.887200</ele>
<time>2010-10-16T09:55:50.400Z</time>
</trkpt>
<trkpt lat="48.410761" lon="12.817233">
<ele>390.144000</ele>
<time>2010-10-16T09:56:08.500Z</time>
</trkpt>
<trkpt lat="48.410776" lon="12.817666">
<ele>390.144000</ele>
<time>2010-10-16T09:56:26.600Z</time>
</trkpt>
<trkpt lat="48.410878" lon="12.818368">
<ele>391.972800</ele>
<time>2010-10-16T09:56:44.700Z</time>
</trkpt>
<trkpt lat="48.412966" lon="12.817405">
<ele>390.144000</ele>
<time>2010-10-16T09:57:02.800Z</time>
</trkpt>
<trkpt lat="48.413468" lon="12.817155">
<ele>390.144000</ele>
<time>2010-10-16T09:57:20.900Z</time>
</trkpt>
<trkpt lat="48.414316" lon="12.816858">
<ele>392.887200</ele>
<time>2010-10-16T09:57:39.000Z</time>
</trkpt>
<trkpt lat="48.415138" lon="12.816464">
<ele>395.020800</ele>
<time>2010-10-16T09:57:57.100Z</time>
</trkpt>
<trkpt lat="48.415402" lon="12.816281">
<ele>395.020800</ele>
<time>2010-10-16T09:58:15.200Z</time>
</trkpt>
<trkpt lat="48.415726" lon="12.815840">
<ele>395.935200</ele>
<time>2010-10-16T09:58:33.300Z</time>
</trkpt>
<trkpt lat="48.415964" lon="12.815530">
<ele>398.068800</ele>
<time>2010-10-16T09:58:51.400Z</time>
</trkpt>
<trkpt lat="48.416331" lon="12.815123">
<ele>401.116800</ele>
<time>2010-10-16T09:59:09.500Z</time>
</trkpt>
<trkpt lat="48.416612" lon="12.815251">
<ele>403.860000</ele>
<time>2010-10-16T09:59:27.600Z</time>
</trkpt>
<trkpt lat="48.417535" lon="12.817789">
<ele>405.993600</ele>
<time>2010-10-16T09:59:45.700Z</time>
</trkpt>
<trkpt lat="48.417916" lon="12.819500">
<ele>402.945600</ele>
<time>2010-10-16T10:00:03.800Z</time>
</trkpt>
<trkpt lat="48.418122" lon="12.820782">
<ele>402.031200</ele>
<time>2010-10-16T10:00:21.900Z</time>
</trkpt>
<trkpt lat="48.418218" lon="12.821898">
<ele>398.983200</ele>
<time>2010-10-16T10:00:40.000Z</time>
</trkpt>
<trkpt lat="48.417930" lon="12.822241">
<ele>398.068800</ele>
<time>2010-10-16T10:00:58.100Z</time>
</trkpt>
<trkpt lat="48.417702" lon="12.822499">
<ele>396.849600</ele>
<time>2010-10-16T10:01:16.200Z</time>
</trkpt>
<trkpt lat="48.417849" lon="12.823372">
<ele>396.849600</ele>
<time>2010-10-16T10:01:34.300Z</time>
</trkpt>
<trkpt lat="48.417959" lon="12.824333">
<ele>395.935200</ele>
<time>2010-10-16T10:01:52.400Z</time>
</trkpt>
<trkpt lat="48.417992" lon="12.827265">
<ele>392.887200</ele>
<time>2010-10-16T10:02:10.500Z</time>
</trkpt>
<trkpt lat="48.417831" lon="12.828384">
<ele>391.058400</ele>
<time>2010-10-16T10:02:28.600Z</time>
</trkpt>
<trkpt lat="48.417353" lon="12.829727">
<ele>391.972800</ele>
<time>2010-10-16T10:02:46.700Z</time>
</trkpt>
<trkpt lat="48.417303" lon="12.831699">
<ele>391.972800</ele>
<time>2010-10-16T10:03:04.800Z</time>
</trkpt>
<trkpt lat="48.417122" lon="12.831908">
<ele>391.058400</ele>
<time>2010-10-16T10:03:22.900Z</time>
</trkpt>
<trkpt lat="48.416883" lon="12.832053">
<ele>391.058400</ele>
<time>2010-10-16T10:03:41.000Z</time>
</trkpt>
<trkpt lat="48.416912" lon="12.832686">
<ele>391.058400</ele>
<time>2010-10-16T10:03:59.100Z</time>
</trkpt>
<trkpt lat="48.416940" lon="12.833163">
<ele>390.144000</ele>
<time>2010-10-16T10:04:17.200Z</time>
</trkpt>
<trkpt lat="48.416976" lon="12.833802">
<ele>388.924800</ele>
<time>2010-10-16T10:04:35.300Z</time>
</trkpt>
<trkpt lat="48.417015" lon="12.834842">
<ele>388.924800</ele>
<time>2010-10-16T10:04:53.400Z</time>
</trkpt>
<trkpt lat="48.417115" lon="12.835245">
<ele>388.924800</ele>
<time>2010-10-16T10:05:11.500Z</time>
</trkpt>
<trkpt lat="48.417524" lon="12.836328">
<ele>388.010400</ele>
<time>2010-10-16T10:05:29.600Z</time>
</trkpt>
<trkpt lat="48.417463" lon="12.837881">
<ele>387.096000</ele>
<time>2010-10-16T10:05:47.700Z</time>
</trkpt>
<trkpt lat="48.417673" lon="12.839531">
<ele>385.876800</ele>
<time>2010-10-16T10:06:05.800Z</time>
</trkpt>
<trkpt lat="48.418158" lon="12.843966">
<ele>385.876800</ele>
<time>2010-10-16T10:06:23.900Z</time>
</trkpt>
<trkpt lat="48.418201" lon="12.844251">
<ele>385.876800</ele>
<time>2010-10-16T10:06:42.000Z</time>
</trkpt>
<trkpt lat="48.418395" lon="12.847199">
<ele>387.096000</ele>
<time>2010-10-16T10:07:00.100Z</time>
</trkpt>
<trkpt lat="48.418453" lon="12.847529">
<ele>387.096000</ele>
<time>2010-10-16T10:07:18.200Z</time>
</trkpt>
<trkpt lat="48.419219" lon="12.847309">
<ele>387.096000</ele>
<time>2010-10-16T10:07:36.300Z</time>
</trkpt>
<trkpt lat="48.419336" lon="12.847379">
<ele>388.010400</ele>
<time>2010-10-16T10:07:54.400Z</time>
</trkpt>
<trkpt lat="48.419429" lon="12.848967">
<ele>388.010400</ele>
<time>2010-10-16T10:08:12.500Z</time>
</trkpt>
<trkpt lat="48.419651" lon="12.852741">
<ele>388.010400</ele>
<time>2010-10-16T10:08:30.600Z</time>
</trkpt>
<trkpt lat="48.419790" lon="12.855415">
<ele>387.096000</ele>
<time>2010-10-16T10:08:48.700Z</time>
</trkpt>
<trkpt lat="48.419975" lon="12.858426">
<ele>391.058400</ele>
<time>2010-10-16T10:09:06.800Z</time>
</trkpt>
<trkpt lat="48.420330" lon="12.860283">
<ele>392.887200</ele>
<time>2010-10-16T10:09:24.900Z</time>
</trkpt>
<trkpt lat="48.421232" lon="12.863215">
<ele>387.096000</ele>
<time>2010-10-16T10:09:43.000Z</time>
</trkpt>
<trkpt lat="48.423078" lon="12.869427">
<ele>385.876800</ele>
<time>2010-10-16T10:10:01.100Z</time>
</trkpt>
<trkpt lat="48.423468" lon="12.871428">
<ele>387.096000</ele>
<time>2010-10-16T10:10:19.200Z</time>
</trkpt>
<trkpt lat="48.423679" lon="12.872999">
<ele>388.010400</ele>
<time>2010-10-16T10:10:37.300Z</time>
</trkpt>
<trkpt lat="48.423936" lon="12.874110">
<ele>388.010400</ele>
<time>2010-10-16T10:10:55.400Z</time>
</trkpt>
<trkpt lat="48.424196" lon="12.875443">
<ele>388.924800</ele>
<time>2010-10-16T10:11:13.500Z</time>
</trkpt>
<trkpt lat="48.424554" lon="12.877406">
<ele>390.144000</ele>
<time>2010-10-16T10:11:31.600Z</time>
</trkpt>
<trkpt lat="48.424889" lon="12.879371">
<ele>388.924800</ele>
<time>2010-10-16T10:11:49.700Z</time>
</trkpt>
<trkpt lat="48.426273" lon="12.887397">
<ele>388.924800</ele>
<time>2010-10-16T10:12:07.800Z</time>
</trkpt>
<trkpt lat="48.426369" lon="12.889149">
<ele>388.924800</ele>
<time>2010-10-16T10:12:25.900Z</time>
</trkpt>
<trkpt lat="48.426376" lon="12.893347">
<ele>385.876800</ele>
<time>2010-10-16T10:12:44.000Z</time>
</trkpt>
<trkpt lat="48.426328" lon="12.896565">
<ele>388.010400</ele>
<time>2010-10-16T10:13:02.100Z</time>
</trkpt>
<trkpt lat="48.426188" lon="12.897540">
<ele>387.096000</ele>
<time>2010-10-16T10:13:20.200Z</time>
</trkpt>
<trkpt lat="48.426308" lon="12.898059">
<ele>387.096000</ele>
<time>2010-10-16T10:13:38.300Z</time>
</trkpt>
<trkpt lat="48.426410" lon="12.898574">
<ele>385.876800</ele>
<time>2010-10-16T10:13:56.400Z</time>
</trkpt>
<trkpt lat="48.426362" lon="12.899513">
<ele>383.133600</ele>
<time>2010-10-16T10:14:14.500Z</time>
</trkpt>
<trkpt lat="48.426052" lon="12.899889">
<ele>381.000000</ele>
<time>2010-10-16T10:14:32.600Z</time>
</trkpt>
<trkpt lat="48.424962" lon="12.900194">
<ele>381.000000</ele>
<time>2010-10-16T10:14:50.700Z</time>
</trkpt>
<trkpt lat="48.423977" lon="12.900730">
<ele>381.000000</ele>
<time>2010-10-16T10:15:08.800Z</time>
</trkpt>
<trkpt lat="48.422816" lon="12.900899">
<ele>380.085600</ele>
<time>2010-10-16T10:15:26.900Z</time>
</trkpt>
<trkpt lat="48.422176" lon="12.901144">
<ele>380.085600</ele>
<time>2010-10-16T10:15:45.000Z</time>
</trkpt>
<trkpt lat="48.422863" lon="12.902980">
<ele>377.952000</ele>
<time>2010-10-16T10:16:03.100Z</time>
</trkpt>
<trkpt lat="48.423010" lon="12.903713">
<ele>377.037600</ele>
<time>2010-10-16T10:16:21.200Z</time>
</trkpt>
<trkpt lat="48.423015" lon="12.904649">
<ele>377.952000</ele>
<time>2010-10-16T10:16:39.300Z</time>
</trkpt>
<trkpt lat="48.422295" lon="12.904792">
<ele>377.952000</ele>
<time>2010-10-16T10:16:57.400Z</time>
</trkpt>
<trkpt lat="48.421508" lon="12.905084">
<ele>378.866400</ele>
<time>2010-10-16T10:17:15.500Z</time>
</trkpt>
<trkpt lat="48.420968" lon="12.905210">
<ele>378.866400</ele>
<time>2010-10-16T10:17:33.600Z</time>
</trkpt>
<trkpt lat="48.420951" lon="12.905384">
<ele>378.866400</ele>
<time>2010-10-16T10:17:51.700Z</time>
</trkpt>
<trkpt lat="48.420598" lon="12.905430">
<ele>378.866400</ele>
<time>2010-10-16T10:18:09.800Z</time>
</trkpt>
<trkpt lat="48.420513" lon="12.905537">
<ele>378.866400</ele>
<time>2010-10-16T10:18:27.900Z</time>
</trkpt>
<trkpt lat="48.420392" lon="12.906047">
<ele>377.952000</ele>
<time>2010-10-16T10:18:46.000Z</time>
</trkpt>
<trkpt lat="48.420324" lon="12.906752">
<ele>377.037600</ele>
<time>2010-10-16T10:19:04.100Z</time>
</trkpt>
<trkpt lat="48.420372" lon="12.908109">
<ele>377.037600</ele>
<time>2010-10-16T10:19:22.200Z</time>
</trkpt>
<trkpt lat="48.420682" lon="12.910057">
<ele>377.952000</ele>
<time>2010-10-16T10:19:40.300Z</time>
</trkpt>
<trkpt lat="48.420794" lon="12.911213">
<ele>377.037600</ele>
<time>2010-10-16T10:19:58.400Z</time>
</trkpt>
<trkpt lat="48.420826" lon="12.911980">
<ele>377.952000</ele>
<time>2010-10-16T10:20:16.500Z</time>
</trkpt>
<trkpt lat="48.420764" lon="12.912750">
<ele>377.037600</ele>
<time>2010-10-16T10:20:34.600Z</time>
</trkpt>
<trkpt lat="48.420726" lon="12.913485">
<ele>376.123200</ele>
<time>2010-10-16T10:20:52.700Z</time>
</trkpt>
<trkpt lat="48.420803" lon="12.913879">
<ele>374.904000</ele>
<time>2010-10-16T10:21:10.800Z</time>
</trkpt>
<trkpt lat="48.420976" lon="12.914225">
<ele>374.904000</ele>
<time>2010-10-16T10:21:28.900Z</time>
</trkpt>
<trkpt lat="48.421722" lon="12.915296">
<ele>376.123200</ele>
<time>2010-10-16T10:21:47.000Z</time>
</trkpt>
<trkpt lat="48.421924" lon="12.915620">
<ele>374.904000</ele>
<time>2010-10-16T10:22:05.100Z</time>
</trkpt>
<trkpt lat="48.422232" lon="12.916119">
<ele>374.904000</ele>
<time>2010-10-16T10:22:23.200Z</time>
</trkpt>
<trkpt lat="48.422337" lon="12.916387">
<ele>374.904000</ele>
<time>2010-10-16T10:22:41.300Z</time>
</trkpt>
<trkpt lat="48.422441" lon="12.917355">
<ele>376.123200</ele>
<time>2010-10-16T10:22:59.400Z</time>
</trkpt>
<trkpt lat="48.422533" lon="12.917752">
<ele>374.904000</ele>
<time>2010-10-16T10:23:17.500Z</time>
</trkpt>
<trkpt lat="48.422877" lon="12.918490">
<ele>374.904000</ele>
<time>2010-10-16T10:23:35.600Z</time>
</trkpt>
<trkpt lat="48.423115" lon="12.919182">
<ele>376.123200</ele>
<time>2010-10-16T10:23:53.700Z</time>
</trkpt>
<trkpt lat="48.423293" lon="12.920496">
<ele>374.904000</ele>
<time>2010-10-16T10:24:11.800Z</time>
</trkpt>
<trkpt lat="48.423409" lon="12.922180">
<ele>373.989600</ele>
<time>2010-10-16T10:24:29.900Z</time>
</trkpt>
<trkpt lat="48.423526" lon="12.922961">
<ele>373.075200</ele>
<time>2010-10-16T10:24:48.000Z</time>
</trkpt>
<trkpt lat="48.423705" lon="12.923681">
<ele>373.075200</ele>
<time>2010-10-16T10:25:06.100Z</time>
</trkpt>
<trkpt lat="48.424041" lon="12.924685">
<ele>373.075200</ele>
<time>2010-10-16T10:25:24.200Z</time>
</trkpt>
<trkpt lat="48.424555" lon="12.925968">
<ele>373.075200</ele>
<time>2010-10-16T10:25:42.300Z</time>
</trkpt>
<trkpt lat="48.424760" lon="12.926466">
<ele>373.075200</ele>
<time>2010-10-16T10:26:00.400Z</time>
</trkpt>
<trkpt lat="48.425484" lon="12.927483">
<ele>373.989600</ele>
<time>2010-10-16T10:26:18.500Z</time>
</trkpt>
<trkpt lat="48.425758" lon="12.928119">
<ele>373.989600</ele>
<time>2010-10-16T10:26:36.600Z</time>
</trkpt>
<trkpt lat="48.425872" lon="12.928620">
<ele>373.989600</ele>
<time>2010-10-16T10:26:54.700Z</time>
</trkpt>
<trkpt lat="48.425883" lon="12.929071">
<ele>373.075200</ele>
<time>2010-10-16T10:27:12.800Z</time>
</trkpt>
<trkpt lat="48.425789" lon="12.929664">
<ele>373.075200</ele>
<time>2010-10-16T10:27:30.900Z</time>
</trkpt>
<trkpt lat="48.425622" lon="12.930296">
<ele>373.075200</ele>
<time>2010-10-16T10:27:49.000Z</time>
</trkpt>
<trkpt lat="48.425356" lon="12.931219">
<ele>373.989600</ele>
<time>2010-10-16T10:28:07.100Z</time>
</trkpt>
<trkpt lat="48.425294" lon="12.931622">
<ele>373.075200</ele>
<time>2010-10-16T10:28:25.200Z</time>
</trkpt>
<trkpt lat="48.425244" lon="12.933384">
<ele>373.075200</ele>
<time>2010-10-16T10:28:43.300Z</time>
</trkpt>
<trkpt lat="48.425246" lon="12.935645">
<ele>373.075200</ele>
<time>2010-10-16T10:29:01.400Z</time>
</trkpt>
<trkpt lat="48.425260" lon="12.936466">
<ele>371.856000</ele>
<time>2010-10-16T10:29:19.500Z</time>
</trkpt>
<trkpt lat="48.425367" lon="12.937139">
<ele>373.075200</ele>
<time>2010-10-16T10:29:37.600Z</time>
</trkpt>
<trkpt lat="48.425602" lon="12.938134">
<ele>373.075200</ele>
<time>2010-10-16T10:29:55.700Z</time>
</trkpt>
<trkpt lat="48.426116" lon="12.939577">
<ele>371.856000</ele>
<time>2010-10-16T10:30:13.800Z</time>
</trkpt>
<trkpt lat="48.426205" lon="12.939902">
<ele>371.856000</ele>
<time>2010-10-16T10:30:31.900Z</time>
</trkpt>
<trkpt lat="48.426390" lon="12.940806">
<ele>373.075200</ele>
<time>2010-10-16T10:30:50.000Z</time>
</trkpt>
<trkpt lat="48.426465" lon="12.941122">
<ele>373.989600</ele>
<time>2010-10-16T10:31:08.100Z</time>
</trkpt>
<trkpt lat="48.426476" lon="12.941331">
<ele>373.989600</ele>
<time>2010-10-16T10:31:26.200Z</time>
</trkpt>
<trkpt lat="48.426775" lon="12.941366">
<ele>373.989600</ele>
<time>2010-10-16T10:31:44.300Z</time>
</trkpt>
<trkpt lat="48.426812" lon="12.941766">
<ele>373.075200</ele>
<time>2010-10-16T10:32:02.400Z</time>
</trkpt>
<trkpt lat="48.426543" lon="12.941893">
<ele>373.075200</ele>
<time>2010-10-16T10:32:20.500Z</time>
</trkpt>
<trkpt lat="48.426415" lon="12.942104">
<ele>373.075200</ele>
<time>2010-10-16T10:32:38.600Z</time>
</trkpt>
<trkpt lat="48.426358" lon="12.942541">
<ele>371.856000</ele>
<time>2010-10-16T10:32:56.700Z</time>
</trkpt>
<trkpt lat="48.426426" lon="12.943126">
<ele>370.027200</ele>
<time>2010-10-16T10:33:14.800Z</time>
</trkpt>
<trkpt lat="48.426527" lon="12.943372">
<ele>370.027200</ele>
<time>2010-10-16T10:33:32.900Z</time>
</trkpt>
<trkpt lat="48.426634" lon="12.943415">
<ele>370.027200</ele>
<time>2010-10-16T10:33:51.000Z</time>
</trkpt>
<trkpt lat="48.427029" lon="12.943456">
<ele>370.027200</ele>
<time>2010-10-16T10:34:09.100Z</time>
</trkpt>
<trkpt lat="48.427043" lon="12.943252">
<ele>370.941600</ele>
<time>2010-10-16T10:34:27.200Z</time>
</trkpt>
<trkpt lat="48.427887" lon="12.943193">
<ele>371.856000</ele>
<time>2010-10-16T10:34:45.300Z</time>
</trkpt>
<trkpt lat="48.428537" lon="12.943064">
<ele>373.075200</ele>
<time>2010-10-16T10:35:03.400Z</time>
</trkpt>
<trkpt lat="48.428702" lon="12.944201">
<ele>371.856000</ele>
<time>2010-10-16T10:35:21.500Z</time>
</trkpt>
<trkpt lat="48.428747" lon="12.945314">
<ele>370.941600</ele>
<time>2010-10-16T10:35:39.600Z</time>
</trkpt>
<trkpt lat="48.428942" lon="12.946283">
<ele>370.941600</ele>
<time>2010-10-16T10:35:57.700Z</time>
</trkpt>
<trkpt lat="48.429208" lon="12.947286">
<ele>370.027200</ele>
<time>2010-10-16T10:36:15.800Z</time>
</trkpt>
<trkpt lat="48.429888" lon="12.950274">
<ele>370.941600</ele>
<time>2010-10-16T10:36:33.900Z</time>
</trkpt>
<trkpt lat="48.430464" lon="12.950118">
<ele>371.856000</ele>
<time>2010-10-16T10:36:52.000Z</time>
</trkpt>
<trkpt lat="48.430614" lon="12.950204">
<ele>371.856000</ele>
<time>2010-10-16T10:37:10.100Z</time>
</trkpt>
<trkpt lat="48.430731" lon="12.950381">
<ele>371.856000</ele>
<time>2010-10-16T10:37:28.200Z</time>
</trkpt>
<trkpt lat="48.430895" lon="12.950488">
<ele>371.856000</ele>
<time>2010-10-16T10:37:46.300Z</time>
</trkpt>
<trkpt lat="48.430977" lon="12.950590">
<ele>371.856000</ele>
<time>2010-10-16T10:38:04.400Z</time>
</trkpt>
<trkpt lat="48.431190" lon="12.951652">
<ele>371.856000</ele>
<time>2010-10-16T10:38:22.500Z</time>
</trkpt>
<trkpt lat="48.431343" lon="12.952173">
<ele>373.075200</ele>
<time>2010-10-16T10:38:40.600Z</time>
</trkpt>
<trkpt lat="48.431607" lon="12.953584">
<ele>377.037600</ele>
<time>2010-10-16T10:38:58.700Z</time>
</trkpt>
<trkpt lat="48.431749" lon="12.954034">
<ele>380.085600</ele>
<time>2010-10-16T10:39:16.800Z</time>
</trkpt>
<trkpt lat="48.432169" lon="12.956024">
<ele>383.133600</ele>
<time>2010-10-16T10:39:34.900Z</time>
</trkpt>
<trkpt lat="48.432279" lon="12.956588">
<ele>381.000000</ele>
<time>2010-10-16T10:39:53.000Z</time>
</trkpt>
<trkpt lat="48.432554" lon="12.958304">
<ele>373.075200</ele>
<time>2010-10-16T10:40:11.100Z</time>
</trkpt>
<trkpt lat="48.432824" lon="12.959785">
<ele>370.941600</ele>
<time>2010-10-16T10:40:29.200Z</time>
</trkpt>
<trkpt lat="48.433294" lon="12.961856">
<ele>370.027200</ele>
<time>2010-10-16T10:40:47.300Z</time>
</trkpt>
<trkpt lat="48.433557" lon="12.963229">
<ele>370.941600</ele>
<time>2010-10-16T10:41:05.400Z</time>
</trkpt>
<trkpt lat="48.433963" lon="12.965299">
<ele>367.893600</ele>
<time>2010-10-16T10:41:23.500Z</time>
</trkpt>
<trkpt lat="48.434052" lon="12.965852">
<ele>367.893600</ele>
<time>2010-10-16T10:41:41.600Z</time>
</trkpt>
<trkpt lat="48.434080" lon="12.966447">
<ele>367.893600</ele>
<time>2010-10-16T10:41:59.700Z</time>
</trkpt>
<trkpt lat="48.434219" lon="12.966861">
<ele>367.893600</ele>
<time>2010-10-16T10:42:17.800Z</time>
</trkpt>
<trkpt lat="48.434479" lon="12.967831">
<ele>366.979200</ele>
<time>2010-10-16T10:42:35.900Z</time>
</trkpt>
<trkpt lat="48.434678" lon="12.968872">
<ele>367.893600</ele>
<time>2010-10-16T10:42:54.000Z</time>
</trkpt>
<trkpt lat="48.434774" lon="12.969666">
<ele>367.893600</ele>
<time>2010-10-16T10:43:12.100Z</time>
</trkpt>
<trkpt lat="48.434803" lon="12.970632">
<ele>366.979200</ele>
<time>2010-10-16T10:43:30.200Z</time>
</trkpt>
<trkpt lat="48.434739" lon="12.971807">
<ele>366.064800</ele>
<time>2010-10-16T10:43:48.300Z</time>
</trkpt>
<trkpt lat="48.434597" lon="12.973539">
<ele>366.064800</ele>
<time>2010-10-16T10:44:06.400Z</time>
</trkpt>
<trkpt lat="48.434411" lon="12.974784">
<ele>366.979200</ele>
<time>2010-10-16T10:44:24.500Z</time>
</trkpt>
<trkpt lat="48.434191" lon="12.975626">
<ele>366.979200</ele>
<time>2010-10-16T10:44:42.600Z</time>
</trkpt>
<trkpt lat="48.434038" lon="12.976313">
<ele>366.064800</ele>
<time>2010-10-16T10:45:00.700Z</time>
</trkpt>
<trkpt lat="48.433906" lon="12.977546">
<ele>365.150400</ele>
<time>2010-10-16T10:45:18.800Z</time>
</trkpt>
<trkpt lat="48.433810" lon="12.979767">
<ele>365.150400</ele>
<time>2010-10-16T10:45:36.900Z</time>
</trkpt>
<trkpt lat="48.433746" lon="12.980829">
<ele>366.064800</ele>
<time>2010-10-16T10:45:55.000Z</time>
</trkpt>
<trkpt lat="48.433870" lon="12.983002">
<ele>363.016800</ele>
<time>2010-10-16T10:46:13.100Z</time>
</trkpt>
<trkpt lat="48.434084" lon="12.984418">
<ele>363.016800</ele>
<time>2010-10-16T10:46:31.200Z</time>
</trkpt>
<trkpt lat="48.434287" lon="12.985604">
<ele>363.931200</ele>
<time>2010-10-16T10:46:49.300Z</time>
</trkpt>
<trkpt lat="48.434518" lon="12.986736">
<ele>363.016800</ele>
<time>2010-10-16T10:47:07.400Z</time>
</trkpt>
<trkpt lat="48.434764" lon="12.987787">
<ele>363.931200</ele>
<time>2010-10-16T10:47:25.500Z</time>
</trkpt>
<trkpt lat="48.434828" lon="12.988232">
<ele>363.931200</ele>
<time>2010-10-16T10:47:43.600Z</time>
</trkpt>
<trkpt lat="48.434871" lon="12.988726">
<ele>363.931200</ele>
<time>2010-10-16T10:48:01.700Z</time>
</trkpt>
<trkpt lat="48.434935" lon="12.989032">
<ele>365.150400</ele>
<time>2010-10-16T10:48:19.800Z</time>
</trkpt>
<trkpt lat="48.435949" lon="12.991247">
<ele>365.150400</ele>
<time>2010-10-16T10:48:37.900Z</time>
</trkpt>
<trkpt lat="48.436166" lon="12.991526">
<ele>365.150400</ele>
<time>2010-10-16T10:48:56.000Z</time>
</trkpt>
<trkpt lat="48.436504" lon="12.991896">
<ele>366.064800</ele>
<time>2010-10-16T10:49:14.100Z</time>
</trkpt>
<trkpt lat="48.436686" lon="12.992218">
<ele>365.150400</ele>
<time>2010-10-16T10:49:32.200Z</time>
</trkpt>
<trkpt lat="48.437070" lon="12.993130">
<ele>363.931200</ele>
<time>2010-10-16T10:49:50.300Z</time>
</trkpt>
<trkpt lat="48.437380" lon="12.994101">
<ele>363.016800</ele>
<time>2010-10-16T10:50:08.400Z</time>
</trkpt>
<trkpt lat="48.437447" lon="12.994536">
<ele>363.016800</ele>
<time>2010-10-16T10:50:26.500Z</time>
</trkpt>
<trkpt lat="48.437109" lon="12.994857">
<ele>363.931200</ele>
<time>2010-10-16T10:50:44.600Z</time>
</trkpt>
<trkpt lat="48.436946" lon="12.995222">
<ele>363.931200</ele>
<time>2010-10-16T10:51:02.700Z</time>
</trkpt>
<trkpt lat="48.436757" lon="12.995689">
<ele>363.931200</ele>
<time>2010-10-16T10:51:20.800Z</time>
</trkpt>
<trkpt lat="48.436184" lon="12.996300">
<ele>362.102400</ele>
<time>2010-10-16T10:51:38.900Z</time>
</trkpt>
<trkpt lat="48.435764" lon="12.996853">
<ele>360.883200</ele>
<time>2010-10-16T10:51:57.000Z</time>
</trkpt>
<trkpt lat="48.435554" lon="12.997245">
<ele>360.883200</ele>
<time>2010-10-16T10:52:15.100Z</time>
</trkpt>
<trkpt lat="48.435287" lon="12.998157">
<ele>360.883200</ele>
<time>2010-10-16T10:52:33.200Z</time>
</trkpt>
<trkpt lat="48.435241" lon="12.998516">
<ele>360.883200</ele>
<time>2010-10-16T10:52:51.300Z</time>
</trkpt>
<trkpt lat="48.435248" lon="12.998902">
<ele>360.883200</ele>
<time>2010-10-16T10:53:09.400Z</time>
</trkpt>
<trkpt lat="48.434970" lon="13.000571">
<ele>360.883200</ele>
<time>2010-10-16T10:53:27.500Z</time>
</trkpt>
<trkpt lat="48.434906" lon="13.000715">
<ele>360.883200</ele>
<time>2010-10-16T10:53:45.600Z</time>
</trkpt>
<trkpt lat="48.434013" lon="13.000490">
<ele>360.883200</ele>
<time>2010-10-16T10:54:03.700Z</time>
</trkpt>
<trkpt lat="48.433757" lon="13.000442">
<ele>360.883200</ele>
<time>2010-10-16T10:54:21.800Z</time>
</trkpt>
<trkpt lat="48.433692" lon="13.000517">
<ele>360.883200</ele>
<time>2010-10-16T10:54:39.900Z</time>
</trkpt>
<trkpt lat="48.433760" lon="13.001429">
<ele>360.883200</ele>
<time>2010-10-16T10:54:58.000Z</time>
</trkpt>
<trkpt lat="48.433842" lon="13.001804">
<ele>360.883200</ele>
<time>2010-10-16T10:55:16.100Z</time>
</trkpt>
<trkpt lat="48.434034" lon="13.002121">
<ele>360.883200</ele>
<time>2010-10-16T10:55:34.200Z</time>
</trkpt>
<trkpt lat="48.434504" lon="13.002571">
<ele>360.883200</ele>
<time>2010-10-16T10:55:52.300Z</time>
</trkpt>
<trkpt lat="48.434703" lon="13.002840">
<ele>359.968800</ele>
<time>2010-10-16T10:56:10.400Z</time>
</trkpt>
<trkpt lat="48.435123" lon="13.003473">
<ele>359.968800</ele>
<time>2010-10-16T10:56:28.500Z</time>
</trkpt>
<trkpt lat="48.435511" lon="13.003821">
<ele>359.968800</ele>
<time>2010-10-16T10:56:46.600Z</time>
</trkpt>
<trkpt lat="48.435579" lon="13.004057">
<ele>359.968800</ele>
<time>2010-10-16T10:57:04.700Z</time>
</trkpt>
<trkpt lat="48.435899" lon="13.005243">
<ele>359.968800</ele>
<time>2010-10-16T10:57:22.800Z</time>
</trkpt>
<trkpt lat="48.436106" lon="13.005758">
<ele>359.968800</ele>
<time>2010-10-16T10:57:40.900Z</time>
</trkpt>
<trkpt lat="48.436237" lon="13.006278">
<ele>359.968800</ele>
<time>2010-10-16T10:57:59.000Z</time>
</trkpt>
<trkpt lat="48.436262" lon="13.007206">
<ele>360.883200</ele>
<time>2010-10-16T10:58:17.100Z</time>
</trkpt>
<trkpt lat="48.436319" lon="13.007904">
<ele>360.883200</ele>
<time>2010-10-16T10:58:35.200Z</time>
</trkpt>
<trkpt lat="48.436497" lon="13.008547">
<ele>360.883200</ele>
<time>2010-10-16T10:58:53.300Z</time>
</trkpt>
<trkpt lat="48.436785" lon="13.009261">
<ele>362.102400</ele>
<time>2010-10-16T10:59:11.400Z</time>
</trkpt>
<trkpt lat="48.437059" lon="13.009642">
<ele>360.883200</ele>
<time>2010-10-16T10:59:29.500Z</time>
</trkpt>
<trkpt lat="48.437291" lon="13.009846">
<ele>360.883200</ele>
<time>2010-10-16T10:59:47.600Z</time>
</trkpt>
<trkpt lat="48.437529" lon="13.009894">
<ele>362.102400</ele>
<time>2010-10-16T11:00:05.700Z</time>
</trkpt>
<trkpt lat="48.438099" lon="13.010404">
<ele>360.883200</ele>
<time>2010-10-16T11:00:23.800Z</time>
</trkpt>
<trkpt lat="48.438971" lon="13.011042">
<ele>359.054400</ele>
<time>2010-10-16T11:00:41.900Z</time>
</trkpt>
<trkpt lat="48.439309" lon="13.011181">
<ele>359.054400</ele>
<time>2010-10-16T11:01:00.000Z</time>
</trkpt>
<trkpt lat="48.439665" lon="13.011460">
<ele>359.054400</ele>
<time>2010-10-16T11:01:18.100Z</time>
</trkpt>
<trkpt lat="48.440020" lon="13.011863">
<ele>359.054400</ele>
<time>2010-10-16T11:01:36.200Z</time>
</trkpt>
<trkpt lat="48.440084" lon="13.012050">
<ele>359.054400</ele>
<time>2010-10-16T11:01:54.300Z</time>
</trkpt>
<trkpt lat="48.440230" lon="13.012673">
<ele>359.054400</ele>
<time>2010-10-16T11:02:12.400Z</time>
</trkpt>
<trkpt lat="48.440237" lon="13.012855">
<ele>359.968800</ele>
<time>2010-10-16T11:02:30.500Z</time>
</trkpt>
<trkpt lat="48.439924" lon="13.013563">
<ele>359.968800</ele>
<time>2010-10-16T11:02:48.600Z</time>
</trkpt>
<trkpt lat="48.439818" lon="13.013960">
<ele>359.054400</ele>
<time>2010-10-16T11:03:06.700Z</time>
</trkpt>
<trkpt lat="48.439775" lon="13.014384">
<ele>359.054400</ele>
<time>2010-10-16T11:03:24.800Z</time>
</trkpt>
<trkpt lat="48.439786" lon="13.014754">
<ele>359.054400</ele>
<time>2010-10-16T11:03:42.900Z</time>
</trkpt>
<trkpt lat="48.439871" lon="13.015103">
<ele>359.054400</ele>
<time>2010-10-16T11:04:01.000Z</time>
</trkpt>
<trkpt lat="48.440003" lon="13.015382">
<ele>359.054400</ele>
<time>2010-10-16T11:04:19.100Z</time>
</trkpt>
<trkpt lat="48.440600" lon="13.015725">
<ele>360.883200</ele>
<time>2010-10-16T11:04:37.200Z</time>
</trkpt>
<trkpt lat="48.440946" lon="13.015924">
<ele>360.883200</ele>
<time>2010-10-16T11:04:55.300Z</time>
</trkpt>
<trkpt lat="48.441031" lon="13.016047">
<ele>360.883200</ele>
<time>2010-10-16T11:05:13.400Z</time>
</trkpt>
<trkpt lat="48.441191" lon="13.016412">
<ele>359.968800</ele>
<time>2010-10-16T11:05:31.500Z</time>
</trkpt>
<trkpt lat="48.441479" lon="13.016873">
<ele>358.140000</ele>
<time>2010-10-16T11:05:49.600Z</time>
</trkpt>
<trkpt lat="48.441928" lon="13.016975">
<ele>358.140000</ele>
<time>2010-10-16T11:06:07.700Z</time>
</trkpt>
<trkpt lat="48.442501" lon="13.017254">
<ele>356.920800</ele>
<time>2010-10-16T11:06:25.800Z</time>
</trkpt>
<trkpt lat="48.442718" lon="13.017275">
<ele>358.140000</ele>
<time>2010-10-16T11:06:43.900Z</time>
</trkpt>
<trkpt lat="48.443010" lon="13.016412">
<ele>359.054400</ele>
<time>2010-10-16T11:07:02.000Z</time>
</trkpt>
<trkpt lat="48.443068" lon="13.016243">
<ele>359.054400</ele>
<time>2010-10-16T11:07:20.100Z</time>
</trkpt>
<trkpt lat="48.443223" lon="13.016103">
<ele>359.968800</ele>
<time>2010-10-16T11:07:38.200Z</time>
</trkpt>
<trkpt lat="48.443517" lon="13.015948">
<ele>362.102400</ele>
<time>2010-10-16T11:07:56.300Z</time>
</trkpt>
<trkpt lat="48.443609" lon="13.016422">
<ele>362.102400</ele>
<time>2010-10-16T11:08:14.400Z</time>
</trkpt>
<trkpt lat="48.443704" lon="13.016693">
<ele>362.102400</ele>
<time>2010-10-16T11:08:32.500Z</time>
</trkpt>
<trkpt lat="48.444166" lon="13.017506">
<ele>362.102400</ele>
<time>2010-10-16T11:08:50.600Z</time>
</trkpt>
<trkpt lat="48.444542" lon="13.018477">
<ele>367.893600</ele>
<time>2010-10-16T11:09:08.700Z</time>
</trkpt>
<trkpt lat="48.444716" lon="13.019172">
<ele>367.893600</ele>
<time>2010-10-16T11:09:26.800Z</time>
</trkpt>
<trkpt lat="48.444801" lon="13.019625">
<ele>366.979200</ele>
<time>2010-10-16T11:09:44.900Z</time>
</trkpt>
<trkpt lat="48.444896" lon="13.020424">
<ele>365.150400</ele>
<time>2010-10-16T11:10:03.000Z</time>
</trkpt>
<trkpt lat="48.444956" lon="13.021111">
<ele>363.016800</ele>
<time>2010-10-16T11:10:21.100Z</time>
</trkpt>
<trkpt lat="48.445040" lon="13.021717">
<ele>363.931200</ele>
<time>2010-10-16T11:10:39.200Z</time>
</trkpt>
<trkpt lat="48.445221" lon="13.022562">
<ele>367.893600</ele>
<time>2010-10-16T11:10:57.300Z</time>
</trkpt>
<trkpt lat="48.445447" lon="13.023214">
<ele>370.941600</ele>
<time>2010-10-16T11:11:15.400Z</time>
</trkpt>
<trkpt lat="48.446673" lon="13.026438">
<ele>363.016800</ele>
<time>2010-10-16T11:11:33.500Z</time>
</trkpt>
<trkpt lat="48.446947" lon="13.026990">
<ele>363.016800</ele>
<time>2010-10-16T11:11:51.600Z</time>
</trkpt>
<trkpt lat="48.447164" lon="13.027427">
<ele>365.150400</ele>
<time>2010-10-16T11:12:09.700Z</time>
</trkpt>
<trkpt lat="48.447468" lon="13.028144">
<ele>365.150400</ele>
<time>2010-10-16T11:12:27.800Z</time>
</trkpt>
<trkpt lat="48.447669" lon="13.028702">
<ele>365.150400</ele>
<time>2010-10-16T11:12:45.900Z</time>
</trkpt>
<trkpt lat="48.447687" lon="13.028838">
<ele>363.931200</ele>
<time>2010-10-16T11:13:04.000Z</time>
</trkpt>
<trkpt lat="48.447588" lon="13.029227">
<ele>359.968800</ele>
<time>2010-10-16T11:13:22.100Z</time>
</trkpt>
<trkpt lat="48.447605" lon="13.029367">
<ele>359.968800</ele>
<time>2010-10-16T11:13:40.200Z</time>
</trkpt>
<trkpt lat="48.447650" lon="13.029436">
<ele>359.968800</ele>
<time>2010-10-16T11:13:58.300Z</time>
</trkpt>
<trkpt lat="48.447742" lon="13.029455">
<ele>360.883200</ele>
<time>2010-10-16T11:14:16.400Z</time>
</trkpt>
<trkpt lat="48.447801" lon="13.029490">
<ele>362.102400</ele>
<time>2010-10-16T11:14:34.500Z</time>
</trkpt>
<trkpt lat="48.447847" lon="13.029571">
<ele>362.102400</ele>
<time>2010-10-16T11:14:52.600Z</time>
</trkpt>
<trkpt lat="48.447917" lon="13.029930">
<ele>359.968800</ele>
<time>2010-10-16T11:15:10.700Z</time>
</trkpt>
<trkpt lat="48.447988" lon="13.030558">
<ele>359.054400</ele>
<time>2010-10-16T11:15:28.800Z</time>
</trkpt>
<trkpt lat="48.448022" lon="13.031188">
<ele>358.140000</ele>
<time>2010-10-16T11:15:46.900Z</time>
</trkpt>
<trkpt lat="48.448034" lon="13.032188">
<ele>359.968800</ele>
<time>2010-10-16T11:16:05.000Z</time>
</trkpt>
<trkpt lat="48.448007" lon="13.032709">
<ele>360.883200</ele>
<time>2010-10-16T11:16:23.100Z</time>
</trkpt>
<trkpt lat="48.447947" lon="13.033192">
<ele>362.102400</ele>
<time>2010-10-16T11:16:41.200Z</time>
</trkpt>
<trkpt lat="48.447897" lon="13.033672">
<ele>363.016800</ele>
<time>2010-10-16T11:16:59.300Z</time>
</trkpt>
<trkpt lat="48.447853" lon="13.034286">
<ele>363.016800</ele>
<time>2010-10-16T11:17:17.400Z</time>
</trkpt>
<trkpt lat="48.447824" lon="13.034506">
<ele>363.016800</ele>
<time>2010-10-16T11:17:35.500Z</time>
</trkpt>
<trkpt lat="48.447753" lon="13.034712">
<ele>360.883200</ele>
<time>2010-10-16T11:17:53.600Z</time>
</trkpt>
<trkpt lat="48.447732" lon="13.034833">
<ele>360.883200</ele>
<time>2010-10-16T11:18:11.700Z</time>
</trkpt>
<trkpt lat="48.447744" lon="13.034946">
<ele>360.883200</ele>
<time>2010-10-16T11:18:29.800Z</time>
</trkpt>
<trkpt lat="48.447753" lon="13.035024">
<ele>360.883200</ele>
<time>2010-10-16T11:18:47.900Z</time>
</trkpt>
<trkpt lat="48.447739" lon="13.035233">
<ele>359.968800</ele>
<time>2010-10-16T11:19:06.000Z</time>
</trkpt>
<trkpt lat="48.447634" lon="13.036627">
<ele>358.140000</ele>
<time>2010-10-16T11:19:24.100Z</time>
</trkpt>
<trkpt lat="48.447276" lon="13.036949">
<ele>356.006400</ele>
<time>2010-10-16T11:19:42.200Z</time>
</trkpt>
<trkpt lat="48.447187" lon="13.037896">
<ele>356.006400</ele>
<time>2010-10-16T11:20:00.300Z</time>
</trkpt>
<trkpt lat="48.447102" lon="13.038417">
<ele>356.006400</ele>
<time>2010-10-16T11:20:18.400Z</time>
</trkpt>
<trkpt lat="48.447064" lon="13.038977">
<ele>356.006400</ele>
<time>2010-10-16T11:20:36.500Z</time>
</trkpt>
<trkpt lat="48.447070" lon="13.039299">
<ele>356.006400</ele>
<time>2010-10-16T11:20:54.600Z</time>
</trkpt>
<trkpt lat="48.447123" lon="13.039556">
<ele>356.920800</ele>
<time>2010-10-16T11:21:12.700Z</time>
</trkpt>
<trkpt lat="48.447209" lon="13.039803">
<ele>358.140000</ele>
<time>2010-10-16T11:21:30.800Z</time>
</trkpt>
<trkpt lat="48.447282" lon="13.039948">
<ele>358.140000</ele>
<time>2010-10-16T11:21:48.900Z</time>
</trkpt>
<trkpt lat="48.447376" lon="13.040061">
<ele>359.054400</ele>
<time>2010-10-16T11:22:07.000Z</time>
</trkpt>
<trkpt lat="48.447354" lon="13.040873">
<ele>359.968800</ele>
<time>2010-10-16T11:22:25.100Z</time>
</trkpt>
<trkpt lat="48.447372" lon="13.041117">
<ele>359.054400</ele>
<time>2010-10-16T11:22:43.200Z</time>
</trkpt>
<trkpt lat="48.447371" lon="13.042257">
<ele>356.920800</ele>
<time>2010-10-16T11:23:01.300Z</time>
</trkpt>
<trkpt lat="48.447267" lon="13.043156">
<ele>356.920800</ele>
<time>2010-10-16T11:23:19.400Z</time>
</trkpt>
<trkpt lat="48.447292" lon="13.044038">
<ele>359.054400</ele>
<time>2010-10-16T11:23:37.500Z</time>
</trkpt>
<trkpt lat="48.447171" lon="13.044258">
<ele>359.054400</ele>
<time>2010-10-16T11:23:55.600Z</time>
</trkpt>
<trkpt lat="48.446823" lon="13.045385">
<ele>359.968800</ele>
<time>2010-10-16T11:24:13.700Z</time>
</trkpt>
<trkpt lat="48.446540" lon="13.046375">
<ele>359.968800</ele>
<time>2010-10-16T11:24:31.800Z</time>
</trkpt>
<trkpt lat="48.446431" lon="13.046981">
<ele>359.054400</ele>
<time>2010-10-16T11:24:49.900Z</time>
</trkpt>
<trkpt lat="48.446440" lon="13.047281">
<ele>359.054400</ele>
<time>2010-10-16T11:25:08.000Z</time>
</trkpt>
<trkpt lat="48.446533" lon="13.047874">
<ele>359.054400</ele>
<time>2010-10-16T11:25:26.100Z</time>
</trkpt>
<trkpt lat="48.446778" lon="13.049180">
<ele>362.102400</ele>
<time>2010-10-16T11:25:44.200Z</time>
</trkpt>
<trkpt lat="48.446846" lon="13.049671">
<ele>362.102400</ele>
<time>2010-10-16T11:26:02.300Z</time>
</trkpt>
<trkpt lat="48.446863" lon="13.050106">
<ele>362.102400</ele>
<time>2010-10-16T11:26:20.400Z</time>
</trkpt>
<trkpt lat="48.446801" lon="13.051106">
<ele>362.102400</ele>
<time>2010-10-16T11:26:38.500Z</time>
</trkpt>
<trkpt lat="48.446714" lon="13.051921">
<ele>362.102400</ele>
<time>2010-10-16T11:26:56.600Z</time>
</trkpt>
<trkpt lat="48.446557" lon="13.052731">
<ele>360.883200</ele>
<time>2010-10-16T11:27:14.700Z</time>
</trkpt>
<trkpt lat="48.446339" lon="13.054011">
<ele>359.968800</ele>
<time>2010-10-16T11:27:32.800Z</time>
</trkpt>
<trkpt lat="48.446084" lon="13.054625">
<ele>359.054400</ele>
<time>2010-10-16T11:27:50.900Z</time>
</trkpt>
<trkpt lat="48.446031" lon="13.054826">
<ele>358.140000</ele>
<time>2010-10-16T11:28:09.000Z</time>
</trkpt>
<trkpt lat="48.446013" lon="13.055084">
<ele>358.140000</ele>
<time>2010-10-16T11:28:27.100Z</time>
</trkpt>
<trkpt lat="48.446027" lon="13.055196">
<ele>358.140000</ele>
<time>2010-10-16T11:28:45.200Z</time>
</trkpt>
<trkpt lat="48.445718" lon="13.056411">
<ele>356.006400</ele>
<time>2010-10-16T11:29:03.300Z</time>
</trkpt>
<trkpt lat="48.445458" lon="13.057232">
<ele>353.872800</ele>
<time>2010-10-16T11:29:21.400Z</time>
</trkpt>
<trkpt lat="48.445187" lon="13.058136">
<ele>352.958400</ele>
<time>2010-10-16T11:29:39.500Z</time>
</trkpt>
<trkpt lat="48.444970" lon="13.058809">
<ele>353.872800</ele>
<time>2010-10-16T11:29:57.600Z</time>
</trkpt>
<trkpt lat="48.444517" lon="13.060126">
<ele>352.958400</ele>
<time>2010-10-16T11:30:15.700Z</time>
</trkpt>
<trkpt lat="48.444358" lon="13.060521">
<ele>353.872800</ele>
<time>2010-10-16T11:30:33.800Z</time>
</trkpt>
<trkpt lat="48.444182" lon="13.061062">
<ele>353.872800</ele>
<time>2010-10-16T11:30:51.900Z</time>
</trkpt>
<trkpt lat="48.444090" lon="13.061282">
<ele>353.872800</ele>
<time>2010-10-16T11:31:10.000Z</time>
</trkpt>
<trkpt lat="48.443928" lon="13.061567">
<ele>353.872800</ele>
<time>2010-10-16T11:31:28.100Z</time>
</trkpt>
<trkpt lat="48.443762" lon="13.061985">
<ele>353.872800</ele>
<time>2010-10-16T11:31:46.200Z</time>
</trkpt>
<trkpt lat="48.443520" lon="13.062540">
<ele>353.872800</ele>
<time>2010-10-16T11:32:04.300Z</time>
</trkpt>
<trkpt lat="48.443380" lon="13.062817">
<ele>353.872800</ele>
<time>2010-10-16T11:32:22.400Z</time>
</trkpt>
<trkpt lat="48.443175" lon="13.063082">
<ele>352.958400</ele>
<time>2010-10-16T11:32:40.500Z</time>
</trkpt>
<trkpt lat="48.443127" lon="13.063176">
<ele>352.958400</ele>
<time>2010-10-16T11:32:58.600Z</time>
</trkpt>
<trkpt lat="48.443070" lon="13.063433">
<ele>352.958400</ele>
<time>2010-10-16T11:33:16.700Z</time>
</trkpt>
<trkpt lat="48.443033" lon="13.063546">
<ele>352.958400</ele>
<time>2010-10-16T11:33:34.800Z</time>
</trkpt>
<trkpt lat="48.442938" lon="13.063769">
<ele>352.044000</ele>
<time>2010-10-16T11:33:52.900Z</time>
</trkpt>
<trkpt lat="48.442100" lon="13.065359">
<ele>353.872800</ele>
<time>2010-10-16T11:34:11.000Z</time>
</trkpt>
<trkpt lat="48.441097" lon="13.067130">
<ele>352.044000</ele>
<time>2010-10-16T11:34:29.100Z</time>
</trkpt>
<trkpt lat="48.439969" lon="13.069045">
<ele>349.910400</ele>
<time>2010-10-16T11:34:47.200Z</time>
</trkpt>
<trkpt lat="48.439303" lon="13.070115">
<ele>349.910400</ele>
<time>2010-10-16T11:35:05.300Z</time>
</trkpt>
<trkpt lat="48.438850" lon="13.070869">
<ele>349.910400</ele>
<time>2010-10-16T11:35:23.400Z</time>
</trkpt>
<trkpt lat="48.438739" lon="13.070783">
<ele>349.910400</ele>
<time>2010-10-16T11:35:41.500Z</time>
</trkpt>
<trkpt lat="48.438673" lon="13.070799">
<ele>349.910400</ele>
<time>2010-10-16T11:35:59.600Z</time>
</trkpt>
<trkpt lat="48.438385" lon="13.071225">
<ele>349.910400</ele>
<time>2010-10-16T11:36:17.700Z</time>
</trkpt>
<trkpt lat="48.438186" lon="13.071558">
<ele>351.129600</ele>
<time>2010-10-16T11:36:35.800Z</time>
</trkpt>
<trkpt lat="48.438010" lon="13.071652">
<ele>351.129600</ele>
<time>2010-10-16T11:36:53.900Z</time>
</trkpt>
<trkpt lat="48.437853" lon="13.071673">
<ele>349.910400</ele>
<time>2010-10-16T11:37:12.000Z</time>
</trkpt>
<trkpt lat="48.437860" lon="13.071947">
<ele>349.910400</ele>
<time>2010-10-16T11:37:30.100Z</time>
</trkpt>
<trkpt lat="48.437796" lon="13.072024">
<ele>349.910400</ele>
<time>2010-10-16T11:37:48.200Z</time>
</trkpt>
<trkpt lat="48.437602" lon="13.072043">
<ele>349.910400</ele>
<time>2010-10-16T11:38:06.300Z</time>
</trkpt>
<trkpt lat="48.436769" lon="13.072574">
<ele>349.910400</ele>
<time>2010-10-16T11:38:24.400Z</time>
</trkpt>
<trkpt lat="48.436588" lon="13.072660">
<ele>349.910400</ele>
<time>2010-10-16T11:38:42.500Z</time>
</trkpt>
<trkpt lat="48.436380" lon="13.072695">
<ele>349.910400</ele>
<time>2010-10-16T11:39:00.600Z</time>
</trkpt>
<trkpt lat="48.436324" lon="13.072867">
<ele>349.910400</ele>
<time>2010-10-16T11:39:18.700Z</time>
</trkpt>
<trkpt lat="48.436401" lon="13.073274">
<ele>349.910400</ele>
<time>2010-10-16T11:39:36.800Z</time>
</trkpt>
<trkpt lat="48.436632" lon="13.074712">
<ele>351.129600</ele>
<time>2010-10-16T11:39:54.900Z</time>
</trkpt>
<trkpt lat="48.437088" lon="13.076890">
<ele>349.910400</ele>
<time>2010-10-16T11:40:13.000Z</time>
</trkpt>
<trkpt lat="48.437579" lon="13.077936">
<ele>348.996000</ele>
<time>2010-10-16T11:40:31.100Z</time>
</trkpt>
<trkpt lat="48.439853" lon="13.081107">
<ele>351.129600</ele>
<time>2010-10-16T11:40:49.200Z</time>
</trkpt>
<trkpt lat="48.440266" lon="13.082099">
<ele>352.044000</ele>
<time>2010-10-16T11:41:07.300Z</time>
</trkpt>
<trkpt lat="48.440640" lon="13.082222">
<ele>352.958400</ele>
<time>2010-10-16T11:41:25.400Z</time>
</trkpt>
<trkpt lat="48.441152" lon="13.081766">
<ele>355.092000</ele>
<time>2010-10-16T11:41:43.500Z</time>
</trkpt>
<trkpt lat="48.441483" lon="13.081686">
<ele>356.006400</ele>
<time>2010-10-16T11:42:01.600Z</time>
</trkpt>
<trkpt lat="48.441395" lon="13.083385">
<ele>359.968800</ele>
<time>2010-10-16T11:42:19.700Z</time>
</trkpt>
<trkpt lat="48.441503" lon="13.084334">
<ele>359.968800</ele>
<time>2010-10-16T11:42:37.800Z</time>
</trkpt>
<trkpt lat="48.441590" lon="13.084660">
<ele>359.968800</ele>
<time>2010-10-16T11:42:55.900Z</time>
</trkpt>
<trkpt lat="48.441919" lon="13.086046">
<ele>359.968800</ele>
<time>2010-10-16T11:43:14.000Z</time>
</trkpt>
<trkpt lat="48.441954" lon="13.086155">
<ele>359.054400</ele>
<time>2010-10-16T11:43:32.100Z</time>
</trkpt>
<trkpt lat="48.442088" lon="13.086761">
<ele>359.054400</ele>
<time>2010-10-16T11:43:50.200Z</time>
</trkpt>
<trkpt lat="48.442063" lon="13.086981">
<ele>358.140000</ele>
<time>2010-10-16T11:44:08.300Z</time>
</trkpt>
<trkpt lat="48.442173" lon="13.088268">
<ele>356.006400</ele>
<time>2010-10-16T11:44:26.400Z</time>
</trkpt>
<trkpt lat="48.442227" lon="13.089303">
<ele>356.920800</ele>
<time>2010-10-16T11:44:44.500Z</time>
</trkpt>
<trkpt lat="48.442184" lon="13.089727">
<ele>356.006400</ele>
<time>2010-10-16T11:45:02.600Z</time>
</trkpt>
<trkpt lat="48.442284" lon="13.090639">
<ele>356.006400</ele>
<time>2010-10-16T11:45:20.700Z</time>
</trkpt>
<trkpt lat="48.442255" lon="13.091181">
<ele>356.920800</ele>
<time>2010-10-16T11:45:38.800Z</time>
</trkpt>
<trkpt lat="48.442312" lon="13.091288">
<ele>356.920800</ele>
<time>2010-10-16T11:45:56.900Z</time>
</trkpt>
<trkpt lat="48.442504" lon="13.092222">
<ele>359.054400</ele>
<time>2010-10-16T11:46:15.000Z</time>
</trkpt>
<trkpt lat="48.442269" lon="13.092463">
<ele>359.054400</ele>
<time>2010-10-16T11:46:33.100Z</time>
</trkpt>
<trkpt lat="48.442576" lon="13.093737">
<ele>362.102400</ele>
<time>2010-10-16T11:46:51.200Z</time>
</trkpt>
<trkpt lat="48.441796" lon="13.094275">
<ele>362.102400</ele>
<time>2010-10-16T11:47:09.300Z</time>
</trkpt>
<trkpt lat="48.441141" lon="13.094762">
<ele>359.968800</ele>
<time>2010-10-16T11:47:27.400Z</time>
</trkpt>
<trkpt lat="48.440766" lon="13.095041">
<ele>358.140000</ele>
<time>2010-10-16T11:47:45.500Z</time>
</trkpt>
<trkpt lat="48.440394" lon="13.095684">
<ele>356.920800</ele>
<time>2010-10-16T11:48:03.600Z</time>
</trkpt>
<trkpt lat="48.439871" lon="13.097093">
<ele>353.872800</ele>
<time>2010-10-16T11:48:21.700Z</time>
</trkpt>
<trkpt lat="48.439246" lon="13.097994">
<ele>352.958400</ele>
<time>2010-10-16T11:48:39.800Z</time>
</trkpt>
<trkpt lat="48.439003" lon="13.098522">
<ele>352.958400</ele>
<time>2010-10-16T11:48:57.900Z</time>
</trkpt>
<trkpt lat="48.438805" lon="13.099335">
<ele>353.872800</ele>
<time>2010-10-16T11:49:16.000Z</time>
</trkpt>
<trkpt lat="48.438595" lon="13.099815">
<ele>353.872800</ele>
<time>2010-10-16T11:49:34.100Z</time>
</trkpt>
<trkpt lat="48.438295" lon="13.100146">
<ele>353.872800</ele>
<time>2010-10-16T11:49:52.200Z</time>
</trkpt>
<trkpt lat="48.438280" lon="13.100512">
<ele>352.958400</ele>
<time>2010-10-16T11:50:10.300Z</time>
</trkpt>
<trkpt lat="48.437422" lon="13.102272">
<ele>349.910400</ele>
<time>2010-10-16T11:50:28.400Z</time>
</trkpt>
<trkpt lat="48.436922" lon="13.103181">
<ele>348.996000</ele>
<time>2010-10-16T11:50:46.500Z</time>
</trkpt>
<trkpt lat="48.436531" lon="13.104748">
<ele>348.996000</ele>
<time>2010-10-16T11:51:04.600Z</time>
</trkpt>
<trkpt lat="48.436369" lon="13.105957">
<ele>348.996000</ele>
<time>2010-10-16T11:51:22.700Z</time>
</trkpt>
<trkpt lat="48.436074" lon="13.106858">
<ele>348.081600</ele>
<time>2010-10-16T11:51:40.800Z</time>
</trkpt>
<trkpt lat="48.435687" lon="13.107778">
<ele>349.910400</ele>
<time>2010-10-16T11:51:58.900Z</time>
</trkpt>
<trkpt lat="48.435420" lon="13.108411">
<ele>349.910400</ele>
<time>2010-10-16T11:52:17.000Z</time>
</trkpt>
<trkpt lat="48.435223" lon="13.109205">
<ele>349.910400</ele>
<time>2010-10-16T11:52:35.100Z</time>
</trkpt>
<trkpt lat="48.435008" lon="13.111005">
<ele>351.129600</ele>
<time>2010-10-16T11:52:53.200Z</time>
</trkpt>
<trkpt lat="48.435085" lon="13.112281">
<ele>352.958400</ele>
<time>2010-10-16T11:53:11.300Z</time>
</trkpt>
<trkpt lat="48.435084" lon="13.113127">
<ele>352.958400</ele>
<time>2010-10-16T11:53:29.400Z</time>
</trkpt>
<trkpt lat="48.434987" lon="13.114954">
<ele>355.092000</ele>
<time>2010-10-16T11:53:47.500Z</time>
</trkpt>
<trkpt lat="48.434837" lon="13.115718">
<ele>356.006400</ele>
<time>2010-10-16T11:54:05.600Z</time>
</trkpt>
<trkpt lat="48.434744" lon="13.115844">
<ele>355.092000</ele>
<time>2010-10-16T11:54:23.700Z</time>
</trkpt>
<trkpt lat="48.434760" lon="13.116045">
<ele>356.006400</ele>
<time>2010-10-16T11:54:41.800Z</time>
</trkpt>
<trkpt lat="48.434630" lon="13.116606">
<ele>355.092000</ele>
<time>2010-10-16T11:54:59.900Z</time>
</trkpt>
<trkpt lat="48.434278" lon="13.117204">
<ele>352.958400</ele>
<time>2010-10-16T11:55:18.000Z</time>
</trkpt>
<trkpt lat="48.434020" lon="13.118201">
<ele>352.958400</ele>
<time>2010-10-16T11:55:36.100Z</time>
</trkpt>
<trkpt lat="48.433844" lon="13.118797">
<ele>352.958400</ele>
<time>2010-10-16T11:55:54.200Z</time>
</trkpt>
<trkpt lat="48.433620" lon="13.119215">
<ele>352.044000</ele>
<time>2010-10-16T11:56:12.300Z</time>
</trkpt>
<trkpt lat="48.433176" lon="13.119902">
<ele>351.129600</ele>
<time>2010-10-16T11:56:30.400Z</time>
</trkpt>
<trkpt lat="48.432516" lon="13.120911">
<ele>351.129600</ele>
<time>2010-10-16T11:56:48.500Z</time>
</trkpt>
<trkpt lat="48.431920" lon="13.122347">
<ele>353.872800</ele>
<time>2010-10-16T11:57:06.600Z</time>
</trkpt>
<trkpt lat="48.431653" lon="13.123523">
<ele>355.092000</ele>
<time>2010-10-16T11:57:24.700Z</time>
</trkpt>
<trkpt lat="48.431383" lon="13.124556">
<ele>352.044000</ele>
<time>2010-10-16T11:57:42.800Z</time>
</trkpt>
<trkpt lat="48.431404" lon="13.125210">
<ele>351.129600</ele>
<time>2010-10-16T11:58:00.900Z</time>
</trkpt>
<trkpt lat="48.430975" lon="13.125269">
<ele>348.996000</ele>
<time>2010-10-16T11:58:19.000Z</time>
</trkpt>
<trkpt lat="48.431251" lon="13.128839">
<ele>359.054400</ele>
<time>2010-10-16T11:58:37.100Z</time>
</trkpt>
<trkpt lat="48.431283" lon="13.130089">
<ele>363.016800</ele>
<time>2010-10-16T11:58:55.200Z</time>
</trkpt>
<trkpt lat="48.431354" lon="13.131360">
<ele>365.150400</ele>
<time>2010-10-16T11:59:13.300Z</time>
</trkpt>
<trkpt lat="48.431304" lon="13.136703">
<ele>374.904000</ele>
<time>2010-10-16T11:59:31.400Z</time>
</trkpt>
<trkpt lat="48.431005" lon="13.138071">
<ele>374.904000</ele>
<time>2010-10-16T11:59:49.500Z</time>
</trkpt>
<trkpt lat="48.431037" lon="13.138973">
<ele>373.989600</ele>
<time>2010-10-16T12:00:07.600Z</time>
</trkpt>
<trkpt lat="48.430610" lon="13.141741">
<ele>373.075200</ele>
<time>2010-10-16T12:00:25.700Z</time>
</trkpt>
<trkpt lat="48.430137" lon="13.144594">
<ele>374.904000</ele>
<time>2010-10-16T12:00:43.800Z</time>
</trkpt>
<trkpt lat="48.429446" lon="13.146746">
<ele>371.856000</ele>
<time>2010-10-16T12:01:01.900Z</time>
</trkpt>
<trkpt lat="48.429322" lon="13.146917">
<ele>370.941600</ele>
<time>2010-10-16T12:01:20.000Z</time>
</trkpt>
<trkpt lat="48.429055" lon="13.147041">
<ele>370.027200</ele>
<time>2010-10-16T12:01:38.100Z</time>
</trkpt>
<trkpt lat="48.428962" lon="13.147212">
<ele>369.112800</ele>
<time>2010-10-16T12:01:56.200Z</time>
</trkpt>
<trkpt lat="48.428688" lon="13.147234">
<ele>367.893600</ele>
<time>2010-10-16T12:02:14.300Z</time>
</trkpt>
<trkpt lat="48.428492" lon="13.147427">
<ele>367.893600</ele>
<time>2010-10-16T12:02:32.400Z</time>
</trkpt>
<trkpt lat="48.428403" lon="13.148140">
<ele>366.064800</ele>
<time>2010-10-16T12:02:50.500Z</time>
</trkpt>
<trkpt lat="48.428346" lon="13.148392">
<ele>366.064800</ele>
<time>2010-10-16T12:03:08.600Z</time>
</trkpt>
<trkpt lat="48.428111" lon="13.148736">
<ele>366.064800</ele>
<time>2010-10-16T12:03:26.700Z</time>
</trkpt>
<trkpt lat="48.427955" lon="13.148907">
<ele>366.064800</ele>
<time>2010-10-16T12:03:44.800Z</time>
</trkpt>
<trkpt lat="48.427122" lon="13.150125">
<ele>363.931200</ele>
<time>2010-10-16T12:04:02.900Z</time>
</trkpt>
<trkpt lat="48.426420" lon="13.151010">
<ele>359.968800</ele>
<time>2010-10-16T12:04:21.000Z</time>
</trkpt>
<trkpt lat="48.426129" lon="13.151574">
<ele>358.140000</ele>
<time>2010-10-16T12:04:39.100Z</time>
</trkpt>
<trkpt lat="48.426004" lon="13.152748">
<ele>353.872800</ele>
<time>2010-10-16T12:04:57.200Z</time>
</trkpt>
<trkpt lat="48.425872" lon="13.153397">
<ele>352.044000</ele>
<time>2010-10-16T12:05:15.300Z</time>
</trkpt>
<trkpt lat="48.424445" lon="13.156106">
<ele>341.985600</ele>
<time>2010-10-16T12:05:33.400Z</time>
</trkpt>
<trkpt lat="48.423936" lon="13.157072">
<ele>341.071200</ele>
<time>2010-10-16T12:05:51.500Z</time>
</trkpt>
<trkpt lat="48.423815" lon="13.157142">
<ele>341.071200</ele>
<time>2010-10-16T12:06:09.600Z</time>
</trkpt>
<trkpt lat="48.423793" lon="13.157356">
<ele>341.071200</ele>
<time>2010-10-16T12:06:27.700Z</time>
</trkpt>
<trkpt lat="48.423505" lon="13.158338">
<ele>341.071200</ele>
<time>2010-10-16T12:06:45.800Z</time>
</trkpt>
<trkpt lat="48.423274" lon="13.158939">
<ele>342.900000</ele>
<time>2010-10-16T12:07:03.900Z</time>
</trkpt>
<trkpt lat="48.423003" lon="13.159550">
<ele>342.900000</ele>
<time>2010-10-16T12:07:22.000Z</time>
</trkpt>
<trkpt lat="48.422761" lon="13.161433">
<ele>345.948000</ele>
<time>2010-10-16T12:07:40.100Z</time>
</trkpt>
<trkpt lat="48.422583" lon="13.162871">
<ele>348.081600</ele>
<time>2010-10-16T12:07:58.200Z</time>
</trkpt>
<trkpt lat="48.422223" lon="13.163574">
<ele>345.948000</ele>
<time>2010-10-16T12:08:16.300Z</time>
</trkpt>
<trkpt lat="48.421846" lon="13.164309">
<ele>342.900000</ele>
<time>2010-10-16T12:08:34.400Z</time>
</trkpt>
<trkpt lat="48.421789" lon="13.164979">
<ele>341.071200</ele>
<time>2010-10-16T12:08:52.500Z</time>
</trkpt>
<trkpt lat="48.421892" lon="13.165752">
<ele>341.071200</ele>
<time>2010-10-16T12:09:10.600Z</time>
</trkpt>
<trkpt lat="48.422024" lon="13.166444">
<ele>342.900000</ele>
<time>2010-10-16T12:09:28.700Z</time>
</trkpt>
<trkpt lat="48.421956" lon="13.166626">
<ele>341.985600</ele>
<time>2010-10-16T12:09:46.800Z</time>
</trkpt>
<trkpt lat="48.421828" lon="13.167887">
<ele>341.985600</ele>
<time>2010-10-16T12:10:04.900Z</time>
</trkpt>
<trkpt lat="48.421697" lon="13.169362">
<ele>341.985600</ele>
<time>2010-10-16T12:10:23.000Z</time>
</trkpt>
<trkpt lat="48.420785" lon="13.172554">
<ele>337.108800</ele>
<time>2010-10-16T12:10:41.100Z</time>
</trkpt>
<trkpt lat="48.418950" lon="13.177453">
<ele>335.889600</ele>
<time>2010-10-16T12:10:59.200Z</time>
</trkpt>
<trkpt lat="48.418433" lon="13.178725">
<ele>335.889600</ele>
<time>2010-10-16T12:11:17.300Z</time>
</trkpt>
<trkpt lat="48.418083" lon="13.180460">
<ele>335.889600</ele>
<time>2010-10-16T12:11:35.400Z</time>
</trkpt>
<trkpt lat="48.417960" lon="13.181038">
<ele>335.889600</ele>
<time>2010-10-16T12:11:53.500Z</time>
</trkpt>
<trkpt lat="48.417528" lon="13.181933">
<ele>334.060800</ele>
<time>2010-10-16T12:12:11.600Z</time>
</trkpt>
<trkpt lat="48.417842" lon="13.182008">
<ele>334.975200</ele>
<time>2010-10-16T12:12:29.700Z</time>
</trkpt>
<trkpt lat="48.418912" lon="13.181992">
<ele>338.023200</ele>
<time>2010-10-16T12:12:47.800Z</time>
</trkpt>
<trkpt lat="48.419198" lon="13.182215">
<ele>338.937600</ele>
<time>2010-10-16T12:13:05.900Z</time>
</trkpt>
<trkpt lat="48.419556" lon="13.182345">
<ele>338.937600</ele>
<time>2010-10-16T12:13:24.000Z</time>
</trkpt>
<trkpt lat="48.419898" lon="13.182312">
<ele>339.852000</ele>
<time>2010-10-16T12:13:42.100Z</time>
</trkpt>
<trkpt lat="48.420318" lon="13.182579">
<ele>341.071200</ele>
<time>2010-10-16T12:14:00.200Z</time>
</trkpt>
<trkpt lat="48.420565" lon="13.183084">
<ele>342.900000</ele>
<time>2010-10-16T12:14:18.300Z</time>
</trkpt>
<trkpt lat="48.420243" lon="13.184617">
<ele>345.948000</ele>
<time>2010-10-16T12:14:36.400Z</time>
</trkpt>
<trkpt lat="48.420229" lon="13.186022">
<ele>345.033600</ele>
<time>2010-10-16T12:14:54.500Z</time>
</trkpt>
<trkpt lat="48.420235" lon="13.187184">
<ele>345.948000</ele>
<time>2010-10-16T12:15:12.600Z</time>
</trkpt>
<trkpt lat="48.420240" lon="13.190156">
<ele>341.985600</ele>
<time>2010-10-16T12:15:30.700Z</time>
</trkpt>
<trkpt lat="48.420196" lon="13.195316">
<ele>338.937600</ele>
<time>2010-10-16T12:15:48.800Z</time>
</trkpt>
<trkpt lat="48.420028" lon="13.198406">
<ele>338.937600</ele>
<time>2010-10-16T12:16:06.900Z</time>
</trkpt>
<trkpt lat="48.419973" lon="13.199459">
<ele>341.071200</ele>
<time>2010-10-16T12:16:25.000Z</time>
</trkpt>
<trkpt lat="48.419941" lon="13.199931">
<ele>339.852000</ele>
<time>2010-10-16T12:16:43.100Z</time>
</trkpt>
<trkpt lat="48.419936" lon="13.201214">
<ele>338.023200</ele>
<time>2010-10-16T12:17:01.200Z</time>
</trkpt>
<trkpt lat="48.419998" lon="13.203026">
<ele>334.975200</ele>
<time>2010-10-16T12:17:19.300Z</time>
</trkpt>
<trkpt lat="48.420282" lon="13.210275">
<ele>335.889600</ele>
<time>2010-10-16T12:17:37.400Z</time>
</trkpt>
<trkpt lat="48.420157" lon="13.211839">
<ele>337.108800</ele>
<time>2010-10-16T12:17:55.500Z</time>
</trkpt>
<trkpt lat="48.420075" lon="13.212810">
<ele>337.108800</ele>
<time>2010-10-16T12:18:13.600Z</time>
</trkpt>
<trkpt lat="48.419847" lon="13.213183">
<ele>338.023200</ele>
<time>2010-10-16T12:18:31.700Z</time>
</trkpt>
<trkpt lat="48.419132" lon="13.213571">
<ele>338.023200</ele>
<time>2010-10-16T12:18:49.800Z</time>
</trkpt>
<trkpt lat="48.418745" lon="13.214423">
<ele>339.852000</ele>
<time>2010-10-16T12:19:07.900Z</time>
</trkpt>
<trkpt lat="48.416787" lon="13.214723">
<ele>334.060800</ele>
<time>2010-10-16T12:19:26.000Z</time>
</trkpt>
<trkpt lat="48.416420" lon="13.215083">
<ele>333.146400</ele>
<time>2010-10-16T12:19:44.100Z</time>
</trkpt>
<trkpt lat="48.416235" lon="13.215646">
<ele>331.927200</ele>
<time>2010-10-16T12:20:02.200Z</time>
</trkpt>
<trkpt lat="48.416228" lon="13.216746">
<ele>333.146400</ele>
<time>2010-10-16T12:20:20.300Z</time>
</trkpt>
<trkpt lat="48.416107" lon="13.217003">
<ele>333.146400</ele>
<time>2010-10-16T12:20:38.400Z</time>
</trkpt>
<trkpt lat="48.415826" lon="13.217132">
<ele>333.146400</ele>
<time>2010-10-16T12:20:56.500Z</time>
</trkpt>
<trkpt lat="48.415292" lon="13.217272">
<ele>333.146400</ele>
<time>2010-10-16T12:21:14.600Z</time>
</trkpt>
<trkpt lat="48.415117" lon="13.217717">
<ele>331.927200</ele>
<time>2010-10-16T12:21:32.700Z</time>
</trkpt>
<trkpt lat="48.414775" lon="13.217829">
<ele>331.927200</ele>
<time>2010-10-16T12:21:50.800Z</time>
</trkpt>
<trkpt lat="48.414836" lon="13.218468">
<ele>331.012800</ele>
<time>2010-10-16T12:22:08.900Z</time>
</trkpt>
<trkpt lat="48.415021" lon="13.223006">
<ele>330.098400</ele>
<time>2010-10-16T12:22:27.000Z</time>
</trkpt>
<trkpt lat="48.415135" lon="13.224562">
<ele>331.012800</ele>
<time>2010-10-16T12:22:45.100Z</time>
</trkpt>
<trkpt lat="48.415249" lon="13.227561">
<ele>330.098400</ele>
<time>2010-10-16T12:23:03.200Z</time>
</trkpt>
<trkpt lat="48.415316" lon="13.227947">
<ele>331.012800</ele>
<time>2010-10-16T12:23:21.300Z</time>
</trkpt>
<trkpt lat="48.415316" lon="13.229792">
<ele>330.098400</ele>
<time>2010-10-16T12:23:39.400Z</time>
</trkpt>
<trkpt lat="48.415316" lon="13.231981">
<ele>328.879200</ele>
<time>2010-10-16T12:23:57.500Z</time>
</trkpt>
<trkpt lat="48.415231" lon="13.233912">
<ele>331.012800</ele>
<time>2010-10-16T12:24:15.600Z</time>
</trkpt>
<trkpt lat="48.415131" lon="13.236487">
<ele>331.012800</ele>
<time>2010-10-16T12:24:33.700Z</time>
</trkpt>
<trkpt lat="48.414946" lon="13.238590">
<ele>330.098400</ele>
<time>2010-10-16T12:24:51.800Z</time>
</trkpt>
<trkpt lat="48.414604" lon="13.241744">
<ele>327.964800</ele>
<time>2010-10-16T12:25:09.900Z</time>
</trkpt>
<trkpt lat="48.413593" lon="13.248932">
<ele>327.050400</ele>
<time>2010-10-16T12:25:28.000Z</time>
</trkpt>
<trkpt lat="48.413066" lon="13.249404">
<ele>326.136000</ele>
<time>2010-10-16T12:25:46.100Z</time>
</trkpt>
<trkpt lat="48.413522" lon="13.249726">
<ele>327.050400</ele>
<time>2010-10-16T12:26:04.200Z</time>
</trkpt>
<trkpt lat="48.412981" lon="13.255520">
<ele>326.136000</ele>
<time>2010-10-16T12:26:22.300Z</time>
</trkpt>
<trkpt lat="48.413023" lon="13.259146">
<ele>326.136000</ele>
<time>2010-10-16T12:26:40.400Z</time>
</trkpt>
<trkpt lat="48.413038" lon="13.260584">
<ele>326.136000</ele>
<time>2010-10-16T12:26:58.500Z</time>
</trkpt>
<trkpt lat="48.412881" lon="13.260906">
<ele>324.916800</ele>
<time>2010-10-16T12:27:16.600Z</time>
</trkpt>
<trkpt lat="48.413095" lon="13.261438">
<ele>324.002400</ele>
<time>2010-10-16T12:27:34.700Z</time>
</trkpt>
<trkpt lat="48.413323" lon="13.264456">
<ele>323.088000</ele>
<time>2010-10-16T12:27:52.800Z</time>
</trkpt>
<trkpt lat="48.413578" lon="13.266583">
<ele>324.002400</ele>
<time>2010-10-16T12:28:10.900Z</time>
</trkpt>
<trkpt lat="48.413963" lon="13.269081">
<ele>324.916800</ele>
<time>2010-10-16T12:28:29.000Z</time>
</trkpt>
<trkpt lat="48.413080" lon="13.269339">
<ele>324.002400</ele>
<time>2010-10-16T12:28:47.100Z</time>
</trkpt>
<trkpt lat="48.412352" lon="13.269349">
<ele>321.868800</ele>
<time>2010-10-16T12:29:05.200Z</time>
</trkpt>
<trkpt lat="48.411499" lon="13.269746">
<ele>321.868800</ele>
<time>2010-10-16T12:29:23.300Z</time>
</trkpt>
<trkpt lat="48.408830" lon="13.270612">
<ele>324.916800</ele>
<time>2010-10-16T12:29:41.400Z</time>
</trkpt>
<trkpt lat="48.408722" lon="13.270663">
<ele>324.002400</ele>
<time>2010-10-16T12:29:59.500Z</time>
</trkpt>
<trkpt lat="48.409878" lon="13.272678">
<ele>323.088000</ele>
<time>2010-10-16T12:30:17.600Z</time>
</trkpt>
<trkpt lat="48.409890" lon="13.272622">
<ele>323.088000</ele>
<time>2010-10-16T12:30:35.700Z</time>
</trkpt>
<trkpt lat="48.411272" lon="13.274266">
<ele>323.088000</ele>
<time>2010-10-16T12:30:53.800Z</time>
</trkpt>
<trkpt lat="48.411367" lon="13.275417">
<ele>323.088000</ele>
<time>2010-10-16T12:31:11.900Z</time>
</trkpt>
<trkpt lat="48.411289" lon="13.275995">
<ele>323.088000</ele>
<time>2010-10-16T12:31:30.000Z</time>
</trkpt>
<trkpt lat="48.410972" lon="13.276484">
<ele>323.088000</ele>
<time>2010-10-16T12:31:48.100Z</time>
</trkpt>
<trkpt lat="48.411443" lon="13.281977">
<ele>321.868800</ele>
<time>2010-10-16T12:32:06.200Z</time>
</trkpt>
<trkpt lat="48.411238" lon="13.282992">
<ele>321.868800</ele>
<time>2010-10-16T12:32:24.300Z</time>
</trkpt>
<trkpt lat="48.411243" lon="13.282964">
<ele>321.868800</ele>
<time>2010-10-16T12:32:42.400Z</time>
</trkpt>
<trkpt lat="48.409634" lon="13.286805">
<ele>321.868800</ele>
<time>2010-10-16T12:33:00.500Z</time>
</trkpt>
<trkpt lat="48.408947" lon="13.287608">
<ele>320.954400</ele>
<time>2010-10-16T12:33:18.600Z</time>
</trkpt>
<trkpt lat="48.407105" lon="13.288304">
<ele>320.040000</ele>
<time>2010-10-16T12:33:36.700Z</time>
</trkpt>
<trkpt lat="48.406315" lon="13.288608">
<ele>323.088000</ele>
<time>2010-10-16T12:33:54.800Z</time>
</trkpt>
<trkpt lat="48.406429" lon="13.290238">
<ele>323.088000</ele>
<time>2010-10-16T12:34:12.900Z</time>
</trkpt>
<trkpt lat="48.406386" lon="13.290904">
<ele>323.088000</ele>
<time>2010-10-16T12:34:31.000Z</time>
</trkpt>
<trkpt lat="48.405973" lon="13.291183">
<ele>324.002400</ele>
<time>2010-10-16T12:34:49.100Z</time>
</trkpt>
<trkpt lat="48.406087" lon="13.291998">
<ele>323.088000</ele>
<time>2010-10-16T12:35:07.200Z</time>
</trkpt>
<trkpt lat="48.406414" lon="13.293264">
<ele>320.954400</ele>
<time>2010-10-16T12:35:25.300Z</time>
</trkpt>
<trkpt lat="48.406813" lon="13.293672">
<ele>320.040000</ele>
<time>2010-10-16T12:35:43.400Z</time>
</trkpt>
<trkpt lat="48.407298" lon="13.294294">
<ele>320.040000</ele>
<time>2010-10-16T12:36:01.500Z</time>
</trkpt>
<trkpt lat="48.408015" lon="13.294554">
<ele>320.954400</ele>
<time>2010-10-16T12:36:19.600Z</time>
</trkpt>
<trkpt lat="48.408320" lon="13.294602">
<ele>320.954400</ele>
<time>2010-10-16T12:36:37.700Z</time>
</trkpt>
<trkpt lat="48.408982" lon="13.294876">
<ele>320.040000</ele>
<time>2010-10-16T12:36:55.800Z</time>
</trkpt>
<trkpt lat="48.411300" lon="13.302684">
<ele>320.040000</ele>
<time>2010-10-16T12:37:13.900Z</time>
</trkpt>
<trkpt lat="48.412339" lon="13.306632">
<ele>320.040000</ele>
<time>2010-10-16T12:37:32.000Z</time>
</trkpt>
<trkpt lat="48.412287" lon="13.307982">
<ele>319.125600</ele>
<time>2010-10-16T12:37:50.100Z</time>
</trkpt>
<trkpt lat="48.412123" lon="13.308091">
<ele>319.125600</ele>
<time>2010-10-16T12:38:08.200Z</time>
</trkpt>
<trkpt lat="48.411617" lon="13.308300">
<ele>319.125600</ele>
<time>2010-10-16T12:38:26.300Z</time>
</trkpt>
<trkpt lat="48.411229" lon="13.308365">
<ele>319.125600</ele>
<time>2010-10-16T12:38:44.400Z</time>
</trkpt>
<trkpt lat="48.411072" lon="13.315301">
<ele>317.906400</ele>
<time>2010-10-16T12:39:02.500Z</time>
</trkpt>
<trkpt lat="48.411713" lon="13.316518">
<ele>317.906400</ele>
<time>2010-10-16T12:39:20.600Z</time>
</trkpt>
<trkpt lat="48.412969" lon="13.317564">
<ele>319.125600</ele>
<time>2010-10-16T12:39:38.700Z</time>
</trkpt>
<trkpt lat="48.413749" lon="13.317800">
<ele>317.906400</ele>
<time>2010-10-16T12:39:56.800Z</time>
</trkpt>
<trkpt lat="48.414385" lon="13.317992">
<ele>317.906400</ele>
<time>2010-10-16T12:40:14.900Z</time>
</trkpt>
<trkpt lat="48.414662" lon="13.318148">
<ele>316.992000</ele>
<time>2010-10-16T12:40:33.000Z</time>
</trkpt>
<trkpt lat="48.415485" lon="13.319344">
<ele>316.992000</ele>
<time>2010-10-16T12:40:51.100Z</time>
</trkpt>
<trkpt lat="48.416077" lon="13.320238">
<ele>316.992000</ele>
<time>2010-10-16T12:41:09.200Z</time>
</trkpt>
<trkpt lat="48.416860" lon="13.320974">
<ele>316.992000</ele>
<time>2010-10-16T12:41:27.300Z</time>
</trkpt>
<trkpt lat="48.417246" lon="13.322659">
<ele>317.906400</ele>
<time>2010-10-16T12:41:45.400Z</time>
</trkpt>
<trkpt lat="48.417227" lon="13.326604">
<ele>314.858400</ele>
<time>2010-10-16T12:42:03.500Z</time>
</trkpt>
<trkpt lat="48.417243" lon="13.326766">
<ele>314.858400</ele>
<time>2010-10-16T12:42:21.600Z</time>
</trkpt>
<trkpt lat="48.421043" lon="13.327176">
<ele>316.077600</ele>
<time>2010-10-16T12:42:39.700Z</time>
</trkpt>
<trkpt lat="48.422615" lon="13.327285">
<ele>314.858400</ele>
<time>2010-10-16T12:42:57.800Z</time>
</trkpt>
<trkpt lat="48.424079" lon="13.327498">
<ele>314.858400</ele>
<time>2010-10-16T12:43:15.900Z</time>
</trkpt>
<trkpt lat="48.424175" lon="13.327717">
<ele>314.858400</ele>
<time>2010-10-16T12:43:34.000Z</time>
</trkpt>
<trkpt lat="48.423811" lon="13.329680">
<ele>313.944000</ele>
<time>2010-10-16T12:43:52.100Z</time>
</trkpt>
<trkpt lat="48.423538" lon="13.331457">
<ele>313.944000</ele>
<time>2010-10-16T12:44:10.200Z</time>
</trkpt>
<trkpt lat="48.423568" lon="13.331971">
<ele>313.944000</ele>
<time>2010-10-16T12:44:28.300Z</time>
</trkpt>
<trkpt lat="48.424488" lon="13.333346">
<ele>313.944000</ele>
<time>2010-10-16T12:44:46.400Z</time>
</trkpt>
<trkpt lat="48.425089" lon="13.334060">
<ele>313.944000</ele>
<time>2010-10-16T12:45:04.500Z</time>
</trkpt>
<trkpt lat="48.425427" lon="13.335069">
<ele>313.944000</ele>
<time>2010-10-16T12:45:22.600Z</time>
</trkpt>
<trkpt lat="48.425819" lon="13.335605">
<ele>313.944000</ele>
<time>2010-10-16T12:45:40.700Z</time>
</trkpt>
<trkpt lat="48.426040" lon="13.335632">
<ele>313.944000</ele>
<time>2010-10-16T12:45:58.800Z</time>
</trkpt>
<trkpt lat="48.426364" lon="13.335240">
<ele>313.944000</ele>
<time>2010-10-16T12:46:16.900Z</time>
</trkpt>
<trkpt lat="48.426609" lon="13.335278">
<ele>313.944000</ele>
<time>2010-10-16T12:46:35.000Z</time>
</trkpt>
<trkpt lat="48.427346" lon="13.336529">
<ele>314.858400</ele>
<time>2010-10-16T12:46:53.100Z</time>
</trkpt>
<trkpt lat="48.427720" lon="13.336780">
<ele>316.077600</ele>
<time>2010-10-16T12:47:11.200Z</time>
</trkpt>
<trkpt lat="48.427905" lon="13.336909">
<ele>316.077600</ele>
<time>2010-10-16T12:47:29.300Z</time>
</trkpt>
<trkpt lat="48.428140" lon="13.337075">
<ele>316.077600</ele>
<time>2010-10-16T12:47:47.400Z</time>
</trkpt>
<trkpt lat="48.428407" lon="13.337086">
<ele>316.077600</ele>
<time>2010-10-16T12:48:05.500Z</time>
</trkpt>
<trkpt lat="48.428688" lon="13.336855">
<ele>316.077600</ele>
<time>2010-10-16T12:48:23.600Z</time>
</trkpt>
<trkpt lat="48.430464" lon="13.334645">
<ele>314.858400</ele>
<time>2010-10-16T12:48:41.700Z</time>
</trkpt>
<trkpt lat="48.430877" lon="13.333840">
<ele>314.858400</ele>
<time>2010-10-16T12:48:59.800Z</time>
</trkpt>
<trkpt lat="48.431148" lon="13.333615">
<ele>314.858400</ele>
<time>2010-10-16T12:49:17.900Z</time>
</trkpt>
<trkpt lat="48.432041" lon="13.333588">
<ele>316.077600</ele>
<time>2010-10-16T12:49:36.000Z</time>
</trkpt>
<trkpt lat="48.432319" lon="13.333524">
<ele>316.077600</ele>
<time>2010-10-16T12:49:54.100Z</time>
</trkpt>
<trkpt lat="48.432391" lon="13.333445">
<ele>316.077600</ele>
<time>2010-10-16T12:50:12.200Z</time>
</trkpt>
<trkpt lat="48.432707" lon="13.333905">
<ele>316.077600</ele>
<time>2010-10-16T12:50:30.300Z</time>
</trkpt>
<trkpt lat="48.432774" lon="13.333980">
<ele>316.077600</ele>
<time>2010-10-16T12:50:48.400Z</time>
</trkpt>
<trkpt lat="48.433045" lon="13.334141">
<ele>316.077600</ele>
<time>2010-10-16T12:51:06.500Z</time>
</trkpt>
<trkpt lat="48.433479" lon="13.334366">
<ele>314.858400</ele>
<time>2010-10-16T12:51:24.600Z</time>
</trkpt>
<trkpt lat="48.433913" lon="13.334559">
<ele>316.077600</ele>
<time>2010-10-16T12:51:42.700Z</time>
</trkpt>
<trkpt lat="48.434276" lon="13.334731">
<ele>316.992000</ele>
<time>2010-10-16T12:52:00.800Z</time>
</trkpt>
<trkpt lat="48.434518" lon="13.334892">
<ele>316.992000</ele>
<time>2010-10-16T12:52:18.900Z</time>
</trkpt>
<trkpt lat="48.434881" lon="13.335224">
<ele>316.992000</ele>
<time>2010-10-16T12:52:37.000Z</time>
</trkpt>
<trkpt lat="48.435095" lon="13.335321">
<ele>316.077600</ele>
<time>2010-10-16T12:52:55.100Z</time>
</trkpt>
<trkpt lat="48.435337" lon="13.335214">
<ele>316.077600</ele>
<time>2010-10-16T12:53:13.200Z</time>
</trkpt>
<trkpt lat="48.435650" lon="13.334978">
<ele>316.992000</ele>
<time>2010-10-16T12:53:31.300Z</time>
</trkpt>
<trkpt lat="48.436006" lon="13.334570">
<ele>316.992000</ele>
<time>2010-10-16T12:53:49.400Z</time>
</trkpt>
<trkpt lat="48.436161" lon="13.334481">
<ele>319.125600</ele>
<time>2010-10-16T12:54:07.500Z</time>
</trkpt>
<trkpt lat="48.436193" lon="13.334498">
<ele>319.125600</ele>
<time>2010-10-16T12:54:25.600Z</time>
</trkpt>
<trkpt lat="48.436269" lon="13.335160">
<ele>317.906400</ele>
<time>2010-10-16T12:54:43.700Z</time>
</trkpt>
<trkpt lat="48.436483" lon="13.336338">
<ele>317.906400</ele>
<time>2010-10-16T12:55:01.800Z</time>
</trkpt>
<trkpt lat="48.436693" lon="13.336992">
<ele>317.906400</ele>
<time>2010-10-16T12:55:19.900Z</time>
</trkpt>
<trkpt lat="48.436778" lon="13.337767">
<ele>317.906400</ele>
<time>2010-10-16T12:55:38.000Z</time>
</trkpt>
<trkpt lat="48.436705" lon="13.338574">
<ele>317.906400</ele>
<time>2010-10-16T12:55:56.100Z</time>
</trkpt>
<trkpt lat="48.436296" lon="13.338764">
<ele>316.992000</ele>
<time>2010-10-16T12:56:14.200Z</time>
</trkpt>
<trkpt lat="48.436205" lon="13.338816">
<ele>316.992000</ele>
<time>2010-10-16T12:56:32.300Z</time>
</trkpt>
<trkpt lat="48.436123" lon="13.338881">
<ele>316.992000</ele>
<time>2010-10-16T12:56:50.400Z</time>
</trkpt>
<trkpt lat="48.436278" lon="13.339591">
<ele>316.992000</ele>
<time>2010-10-16T12:57:08.500Z</time>
</trkpt>
<trkpt lat="48.436335" lon="13.340819">
<ele>314.858400</ele>
<time>2010-10-16T12:57:26.600Z</time>
</trkpt>
<trkpt lat="48.436358" lon="13.341895">
<ele>314.858400</ele>
<time>2010-10-16T12:57:44.700Z</time>
</trkpt>
<trkpt lat="48.436374" lon="13.342397">
<ele>313.944000</ele>
<time>2010-10-16T12:58:02.800Z</time>
</trkpt>
<trkpt lat="48.436522" lon="13.343520">
<ele>313.944000</ele>
<time>2010-10-16T12:58:20.900Z</time>
</trkpt>
<trkpt lat="48.436572" lon="13.344100">
<ele>314.858400</ele>
<time>2010-10-16T12:58:39.000Z</time>
</trkpt>
<trkpt lat="48.436591" lon="13.345786">
<ele>314.858400</ele>
<time>2010-10-16T12:58:57.100Z</time>
</trkpt>
<trkpt lat="48.436575" lon="13.346350">
<ele>314.858400</ele>
<time>2010-10-16T12:59:15.200Z</time>
</trkpt>
<trkpt lat="48.436220" lon="13.349844">
<ele>313.029600</ele>
<time>2010-10-16T12:59:33.300Z</time>
</trkpt>
<trkpt lat="48.435975" lon="13.350041">
<ele>313.029600</ele>
<time>2010-10-16T12:59:51.400Z</time>
</trkpt>
<trkpt lat="48.434750" lon="13.350969">
<ele>312.115200</ele>
<time>2010-10-16T13:00:09.500Z</time>
</trkpt>
<trkpt lat="48.434621" lon="13.351446">
<ele>312.115200</ele>
<time>2010-10-16T13:00:27.600Z</time>
</trkpt>
<trkpt lat="48.434447" lon="13.351457">
<ele>312.115200</ele>
<time>2010-10-16T13:00:45.700Z</time>
</trkpt>
<trkpt lat="48.434011" lon="13.351097">
<ele>313.029600</ele>
<time>2010-10-16T13:01:03.800Z</time>
</trkpt>
<trkpt lat="48.433329" lon="13.350695">
<ele>313.944000</ele>
<time>2010-10-16T13:01:21.900Z</time>
</trkpt>
<trkpt lat="48.433173" lon="13.350475">
<ele>313.944000</ele>
<time>2010-10-16T13:01:40.000Z</time>
</trkpt>
<trkpt lat="48.432956" lon="13.350009">
<ele>313.944000</ele>
<time>2010-10-16T13:01:58.100Z</time>
</trkpt>
<trkpt lat="48.432771" lon="13.349982">
<ele>313.944000</ele>
<time>2010-10-16T13:02:16.200Z</time>
</trkpt>
<trkpt lat="48.432269" lon="13.350636">
<ele>312.115200</ele>
<time>2010-10-16T13:02:34.300Z</time>
</trkpt>
<trkpt lat="48.432025" lon="13.351747">
<ele>313.029600</ele>
<time>2010-10-16T13:02:52.400Z</time>
</trkpt>
<trkpt lat="48.431165" lon="13.353751">
<ele>313.029600</ele>
<time>2010-10-16T13:03:10.500Z</time>
</trkpt>
<trkpt lat="48.431017" lon="13.354085">
<ele>313.029600</ele>
<time>2010-10-16T13:03:28.600Z</time>
</trkpt>
<trkpt lat="48.430745" lon="13.355448">
<ele>312.115200</ele>
<time>2010-10-16T13:03:46.700Z</time>
</trkpt>
<trkpt lat="48.430898" lon="13.357181">
<ele>312.115200</ele>
<time>2010-10-16T13:04:04.800Z</time>
</trkpt>
<trkpt lat="48.431513" lon="13.358558">
<ele>310.896000</ele>
<time>2010-10-16T13:04:22.900Z</time>
</trkpt>
<trkpt lat="48.432077" lon="13.359643">
<ele>309.981600</ele>
<time>2010-10-16T13:04:41.000Z</time>
</trkpt>
<trkpt lat="48.432504" lon="13.361564">
<ele>312.115200</ele>
<time>2010-10-16T13:04:59.100Z</time>
</trkpt>
<trkpt lat="48.432952" lon="13.361596">
<ele>310.896000</ele>
<time>2010-10-16T13:05:17.200Z</time>
</trkpt>
<trkpt lat="48.433290" lon="13.361889">
<ele>310.896000</ele>
<time>2010-10-16T13:05:35.300Z</time>
</trkpt>
<trkpt lat="48.434186" lon="13.362913">
<ele>312.115200</ele>
<time>2010-10-16T13:05:53.400Z</time>
</trkpt>
<trkpt lat="48.434685" lon="13.363305">
<ele>313.029600</ele>
<time>2010-10-16T13:06:11.500Z</time>
</trkpt>
<trkpt lat="48.435187" lon="13.363508">
<ele>314.858400</ele>
<time>2010-10-16T13:06:29.600Z</time>
</trkpt>
<trkpt lat="48.435362" lon="13.363850">
<ele>313.944000</ele>
<time>2010-10-16T13:06:47.700Z</time>
</trkpt>
<trkpt lat="48.435701" lon="13.364129">
<ele>314.858400</ele>
<time>2010-10-16T13:07:05.800Z</time>
</trkpt>
<trkpt lat="48.436077" lon="13.364275">
<ele>313.944000</ele>
<time>2010-10-16T13:07:23.900Z</time>
</trkpt>
<trkpt lat="48.437679" lon="13.368135">
<ele>310.896000</ele>
<time>2010-10-16T13:07:42.000Z</time>
</trkpt>
<trkpt lat="48.436486" lon="13.369165">
<ele>309.067200</ele>
<time>2010-10-16T13:08:00.100Z</time>
</trkpt>
<trkpt lat="48.435451" lon="13.370131">
<ele>310.896000</ele>
<time>2010-10-16T13:08:18.200Z</time>
</trkpt>
<trkpt lat="48.438301" lon="13.375146">
<ele>309.067200</ele>
<time>2010-10-16T13:08:36.300Z</time>
</trkpt>
<trkpt lat="48.439786" lon="13.384078">
<ele>307.848000</ele>
<time>2010-10-16T13:08:54.400Z</time>
</trkpt>
<trkpt lat="48.439746" lon="13.384191">
<ele>307.848000</ele>
<time>2010-10-16T13:09:12.500Z</time>
</trkpt>
<trkpt lat="48.439776" lon="13.384377">
<ele>307.848000</ele>
<time>2010-10-16T13:09:30.600Z</time>
</trkpt>
<trkpt lat="48.438493" lon="13.385559">
<ele>309.067200</ele>
<time>2010-10-16T13:09:48.700Z</time>
</trkpt>
<trkpt lat="48.438982" lon="13.386816">
<ele>309.981600</ele>
<time>2010-10-16T13:10:06.800Z</time>
</trkpt>
<trkpt lat="48.440109" lon="13.389668">
<ele>309.067200</ele>
<time>2010-10-16T13:10:24.900Z</time>
</trkpt>
<trkpt lat="48.440778" lon="13.391084">
<ele>309.981600</ele>
<time>2010-10-16T13:10:43.000Z</time>
</trkpt>
<trkpt lat="48.441060" lon="13.391722">
<ele>309.067200</ele>
<time>2010-10-16T13:11:01.100Z</time>
</trkpt>
<trkpt lat="48.441099" lon="13.391883">
<ele>309.067200</ele>
<time>2010-10-16T13:11:19.200Z</time>
</trkpt>
<trkpt lat="48.441293" lon="13.392042">
<ele>309.067200</ele>
<time>2010-10-16T13:11:37.300Z</time>
</trkpt>
<trkpt lat="48.442344" lon="13.394195">
<ele>307.848000</ele>
<time>2010-10-16T13:11:55.400Z</time>
</trkpt>
<trkpt lat="48.442156" lon="13.394592">
<ele>307.848000</ele>
<time>2010-10-16T13:12:13.500Z</time>
</trkpt>
<trkpt lat="48.442689" lon="13.395676">
<ele>307.848000</ele>
<time>2010-10-16T13:12:31.600Z</time>
</trkpt>
<trkpt lat="48.442401" lon="13.396207">
<ele>307.848000</ele>
<time>2010-10-16T13:12:49.700Z</time>
</trkpt>
<trkpt lat="48.442198" lon="13.396041">
<ele>307.848000</ele>
<time>2010-10-16T13:13:07.800Z</time>
</trkpt>
<trkpt lat="48.441635" lon="13.397188">
<ele>306.933600</ele>
<time>2010-10-16T13:13:25.900Z</time>
</trkpt>
<trkpt lat="48.441049" lon="13.398938">
<ele>306.019200</ele>
<time>2010-10-16T13:13:44.000Z</time>
</trkpt>
<trkpt lat="48.441245" lon="13.399619">
<ele>305.104800</ele>
<time>2010-10-16T13:14:02.100Z</time>
</trkpt>
<trkpt lat="48.441657" lon="13.399978">
<ele>303.885600</ele>
<time>2010-10-16T13:14:20.200Z</time>
</trkpt>
<trkpt lat="48.441522" lon="13.400906">
<ele>305.104800</ele>
<time>2010-10-16T13:14:38.300Z</time>
</trkpt>
<trkpt lat="48.441684" lon="13.403130">
<ele>305.104800</ele>
<time>2010-10-16T13:14:56.400Z</time>
</trkpt>
<trkpt lat="48.441622" lon="13.403578">
<ele>305.104800</ele>
<time>2010-10-16T13:15:14.500Z</time>
</trkpt>
<trkpt lat="48.441321" lon="13.404342">
<ele>303.885600</ele>
<time>2010-10-16T13:15:32.600Z</time>
</trkpt>
<trkpt lat="48.441188" lon="13.404916">
<ele>303.885600</ele>
<time>2010-10-16T13:15:50.700Z</time>
</trkpt>
<trkpt lat="48.441127" lon="13.405648">
<ele>303.885600</ele>
<time>2010-10-16T13:16:08.800Z</time>
</trkpt>
<trkpt lat="48.441182" lon="13.406000">
<ele>303.885600</ele>
<time>2010-10-16T13:16:26.900Z</time>
</trkpt>
<trkpt lat="48.441328" lon="13.406332">
<ele>303.885600</ele>
<time>2010-10-16T13:16:45.000Z</time>
</trkpt>
<trkpt lat="48.442193" lon="13.407341">
<ele>303.885600</ele>
<time>2010-10-16T13:17:03.100Z</time>
</trkpt>
<trkpt lat="48.442611" lon="13.407848">
<ele>303.885600</ele>
<time>2010-10-16T13:17:21.200Z</time>
</trkpt>
<trkpt lat="48.442910" lon="13.408443">
<ele>305.104800</ele>
<time>2010-10-16T13:17:39.300Z</time>
</trkpt>
<trkpt lat="48.443075" lon="13.408695">
<ele>305.104800</ele>
<time>2010-10-16T13:17:57.400Z</time>
</trkpt>
<trkpt lat="48.443551" lon="13.409157">
<ele>303.885600</ele>
<time>2010-10-16T13:18:15.500Z</time>
</trkpt>
<trkpt lat="48.443689" lon="13.409369">
<ele>303.885600</ele>
<time>2010-10-16T13:18:33.600Z</time>
</trkpt>
<trkpt lat="48.443737" lon="13.409567">
<ele>303.885600</ele>
<time>2010-10-16T13:18:51.700Z</time>
</trkpt>
<trkpt lat="48.443732" lon="13.409827">
<ele>303.885600</ele>
<time>2010-10-16T13:19:09.800Z</time>
</trkpt>
<trkpt lat="48.443645" lon="13.410482">
<ele>303.885600</ele>
<time>2010-10-16T13:19:27.900Z</time>
</trkpt>
<trkpt lat="48.443543" lon="13.411295">
<ele>303.885600</ele>
<time>2010-10-16T13:19:46.000Z</time>
</trkpt>
<trkpt lat="48.443980" lon="13.413356">
<ele>303.885600</ele>
<time>2010-10-16T13:20:04.100Z</time>
</trkpt>
<trkpt lat="48.444469" lon="13.415506">
<ele>303.885600</ele>
<time>2010-10-16T13:20:22.200Z</time>
</trkpt>
<trkpt lat="48.444575" lon="13.415543">
<ele>303.885600</ele>
<time>2010-10-16T13:20:40.300Z</time>
</trkpt>
<trkpt lat="48.445321" lon="13.415616">
<ele>303.885600</ele>
<time>2010-10-16T13:20:58.400Z</time>
</trkpt>
<trkpt lat="48.445712" lon="13.414755">
<ele>303.885600</ele>
<time>2010-10-16T13:21:16.500Z</time>
</trkpt>
<trkpt lat="48.445903" lon="13.414425">
<ele>305.104800</ele>
<time>2010-10-16T13:21:34.600Z</time>
</trkpt>
<trkpt lat="48.446104" lon="13.414164">
<ele>306.019200</ele>
<time>2010-10-16T13:21:52.700Z</time>
</trkpt>
<trkpt lat="48.446728" lon="13.413647">
<ele>306.933600</ele>
<time>2010-10-16T13:22:10.800Z</time>
</trkpt>
<trkpt lat="48.446888" lon="13.413510">
<ele>306.933600</ele>
<time>2010-10-16T13:22:28.900Z</time>
</trkpt>
<trkpt lat="48.447121" lon="13.413521">
<ele>306.019200</ele>
<time>2010-10-16T13:22:47.000Z</time>
</trkpt>
<trkpt lat="48.447728" lon="13.414207">
<ele>305.104800</ele>
<time>2010-10-16T13:23:05.100Z</time>
</trkpt>
<trkpt lat="48.448201" lon="13.414741">
<ele>305.104800</ele>
<time>2010-10-16T13:23:23.200Z</time>
</trkpt>
<trkpt lat="48.449077" lon="13.415715">
<ele>306.933600</ele>
<time>2010-10-16T13:23:41.300Z</time>
</trkpt>
<trkpt lat="48.449292" lon="13.415954">
<ele>306.933600</ele>
<time>2010-10-16T13:23:59.400Z</time>
</trkpt>
<trkpt lat="48.449438" lon="13.416149">
<ele>306.933600</ele>
<time>2010-10-16T13:24:17.500Z</time>
</trkpt>
<trkpt lat="48.449562" lon="13.416380">
<ele>306.933600</ele>
<time>2010-10-16T13:24:35.600Z</time>
</trkpt>
<trkpt lat="48.449616" lon="13.416576">
<ele>307.848000</ele>
<time>2010-10-16T13:24:53.700Z</time>
</trkpt>
<trkpt lat="48.449642" lon="13.416806">
<ele>307.848000</ele>
<time>2010-10-16T13:25:11.800Z</time>
</trkpt>
<trkpt lat="48.449617" lon="13.417262">
<ele>307.848000</ele>
<time>2010-10-16T13:25:29.900Z</time>
</trkpt>
<trkpt lat="48.449632" lon="13.417617">
<ele>309.067200</ele>
<time>2010-10-16T13:25:48.000Z</time>
</trkpt>
<trkpt lat="48.449696" lon="13.417869">
<ele>309.067200</ele>
<time>2010-10-16T13:26:06.100Z</time>
</trkpt>
<trkpt lat="48.449801" lon="13.418113">
<ele>309.067200</ele>
<time>2010-10-16T13:26:24.200Z</time>
</trkpt>
<trkpt lat="48.449972" lon="13.418333">
<ele>309.981600</ele>
<time>2010-10-16T13:26:42.300Z</time>
</trkpt>
<trkpt lat="48.450294" lon="13.418638">
<ele>307.848000</ele>
<time>2010-10-16T13:27:00.400Z</time>
</trkpt>
<trkpt lat="48.450674" lon="13.418920">
<ele>306.933600</ele>
<time>2010-10-16T13:27:18.500Z</time>
</trkpt>
<trkpt lat="48.451069" lon="13.419143">
<ele>306.019200</ele>
<time>2010-10-16T13:27:36.600Z</time>
</trkpt>
<trkpt lat="48.451427" lon="13.419285">
<ele>305.104800</ele>
<time>2010-10-16T13:27:54.700Z</time>
</trkpt>
<trkpt lat="48.451758" lon="13.419373">
<ele>303.885600</ele>
<time>2010-10-16T13:28:12.800Z</time>
</trkpt>
<trkpt lat="48.452336" lon="13.419395">
<ele>303.885600</ele>
<time>2010-10-16T13:28:30.900Z</time>
</trkpt>
<trkpt lat="48.452505" lon="13.419982">
<ele>302.971200</ele>
<time>2010-10-16T13:28:49.000Z</time>
</trkpt>
<trkpt lat="48.452603" lon="13.420234">
<ele>302.971200</ele>
<time>2010-10-16T13:29:07.100Z</time>
</trkpt>
<trkpt lat="48.452747" lon="13.420554">
<ele>302.971200</ele>
<time>2010-10-16T13:29:25.200Z</time>
</trkpt>
<trkpt lat="48.452848" lon="13.420819">
<ele>302.971200</ele>
<time>2010-10-16T13:29:43.300Z</time>
</trkpt>
<trkpt lat="48.452994" lon="13.421213">
<ele>302.971200</ele>
<time>2010-10-16T13:30:01.400Z</time>
</trkpt>
<trkpt lat="48.453154" lon="13.421583">
<ele>302.971200</ele>
<time>2010-10-16T13:30:19.500Z</time>
</trkpt>
<trkpt lat="48.453257" lon="13.421758">
<ele>302.971200</ele>
<time>2010-10-16T13:30:37.600Z</time>
</trkpt>
<trkpt lat="48.453457" lon="13.421986">
<ele>302.971200</ele>
<time>2010-10-16T13:30:55.700Z</time>
</trkpt>
<trkpt lat="48.453716" lon="13.422163">
<ele>303.885600</ele>
<time>2010-10-16T13:31:13.800Z</time>
</trkpt>
<trkpt lat="48.453903" lon="13.422324">
<ele>305.104800</ele>
<time>2010-10-16T13:31:31.900Z</time>
</trkpt>
<trkpt lat="48.453956" lon="13.422439">
<ele>305.104800</ele>
<time>2010-10-16T13:31:50.000Z</time>
</trkpt>
<trkpt lat="48.454004" lon="13.422593">
<ele>305.104800</ele>
<time>2010-10-16T13:32:08.100Z</time>
</trkpt>
<trkpt lat="48.454049" lon="13.422753">
<ele>305.104800</ele>
<time>2010-10-16T13:32:26.200Z</time>
</trkpt>
<trkpt lat="48.454364" lon="13.423322">
<ele>305.104800</ele>
<time>2010-10-16T13:32:44.300Z</time>
</trkpt>
<trkpt lat="48.454474" lon="13.423442">
<ele>305.104800</ele>
<time>2010-10-16T13:33:02.400Z</time>
</trkpt>
<trkpt lat="48.454892" lon="13.424132">
<ele>307.848000</ele>
<time>2010-10-16T13:33:20.500Z</time>
</trkpt>
<trkpt lat="48.454988" lon="13.424242">
<ele>307.848000</ele>
<time>2010-10-16T13:33:38.600Z</time>
</trkpt>
<trkpt lat="48.455146" lon="13.424325">
<ele>307.848000</ele>
<time>2010-10-16T13:33:56.700Z</time>
</trkpt>
<trkpt lat="48.455394" lon="13.424343">
<ele>307.848000</ele>
<time>2010-10-16T13:34:14.800Z</time>
</trkpt>
<trkpt lat="48.456297" lon="13.423987">
<ele>307.848000</ele>
<time>2010-10-16T13:34:32.900Z</time>
</trkpt>
<trkpt lat="48.456756" lon="13.424086">
<ele>309.067200</ele>
<time>2010-10-16T13:34:51.000Z</time>
</trkpt>
<trkpt lat="48.457425" lon="13.424376">
<ele>306.933600</ele>
<time>2010-10-16T13:35:09.100Z</time>
</trkpt>
<trkpt lat="48.457895" lon="13.424381">
<ele>306.019200</ele>
<time>2010-10-16T13:35:27.200Z</time>
</trkpt>
<trkpt lat="48.458281" lon="13.424440">
<ele>306.019200</ele>
<time>2010-10-16T13:35:45.300Z</time>
</trkpt>
<trkpt lat="48.458638" lon="13.424571">
<ele>306.019200</ele>
<time>2010-10-16T13:36:03.400Z</time>
</trkpt>
<trkpt lat="48.459213" lon="13.424968">
<ele>306.019200</ele>
<time>2010-10-16T13:36:21.500Z</time>
</trkpt>
<trkpt lat="48.459485" lon="13.425049">
<ele>306.933600</ele>
<time>2010-10-16T13:36:39.600Z</time>
</trkpt>
<trkpt lat="48.460205" lon="13.425658">
<ele>306.019200</ele>
<time>2010-10-16T13:36:57.700Z</time>
</trkpt>
</trkseg>
</trk>
</gpx>
